PWSweather.com
Personal Weather Stations
Station Observations
KNYISLAN6
Islandia, NY

Islandia, NY

Lat: 40.802, Lon: -73.192

Elevation: 100

Station Type: Ambient Weather WS-2902A

Latest ConditionsUpdated 8:38:00 AM EST Thursday, Nov 14, 2019
Currently Today's Max Today's Min Today's Average
Temperature 32.2°F0.1°C 32.2°F0.1°C 22.3°F-5.4°C 25.0°F-3.9°C
Dew Point 24.5°F-4.2°C 24.5°F-4.2°C 14.0°F-10.0°C 17.1°F-8.3°C
Winds 2.9 mph WNW4.7 kmh WNW 2.9 mph -4.7 kmh - - 0.4 mph 0.6 kmh
Wind Gusts 3.4 mph5.5 kmh 3.4 mph5.5 kmh - -
Humidity 73% 80% 63% 72%
Pressure 30.43 in1030.5 mb 30.45 in1031.2 mb 30.40 in1029.5 mb -
Hour Temp Dew Point Humidity Winds Wind Gusts Pressure Precip Precip Rate Daily Precip Total
08:38 AM 32.2°F0.1°C 24.5°F-4.2°C 73% 2.9 mph WNW4.7 kmh WNW 3.4 mph5.5 kmh 30.43 in1030.5 mb 0.00 in0.0 mm 0.00 in0.0 mm 0.00 in0.0 mm
08:37 AM 32.0°F0.0°C 24.3°F-4.3°C 73% 2.5 mph NW4.0 kmh NW 3.4 mph5.5 kmh 30.44 in1030.8 mb 0.00 in0.0 mm 0.00 in0.0 mm 0.00 in0.0 mm
08:36 AM 32.0°F0.0°C 24.0°F-4.4°C 72% 1.8 mph N2.9 kmh N 2.2 mph3.5 kmh 30.43 in1030.5 mb 0.00 in0.0 mm 0.00 in0.0 mm 0.00 in0.0 mm
08:35 AM 31.8°F-0.1°C 23.5°F-4.7°C 71% Calm Calm -- 30.43 in1030.5 mb 0.00 in0.0 mm 0.00 in0.0 mm 0.00 in0.0 mm
08:34 AM 31.8°F-0.1°C 23.5°F-4.7°C 71% Calm Calm -- 30.43 in1030.5 mb 0.00 in0.0 mm 0.00 in0.0 mm 0.00 in0.0 mm
08:33 AM 31.6°F-0.2°C 23.6°F-4.7°C 72% Calm Calm -- 30.43 in1030.5 mb 0.00 in0.0 mm 0.00 in0.0 mm 0.00 in0.0 mm
08:32 AM 31.6°F-0.2°C 23.6°F-4.7°C 72% 0.7 mph ENE1.1 kmh ENE 1.1 mph1.8 kmh 30.43 in1030.5 mb 0.00 in0.0 mm 0.00 in0.0 mm 0.00 in0.0 mm
08:31 AM 31.5°F-0.3°C 23.5°F-4.7°C 72% 0.4 mph ENE0.6 kmh ENE 1.1 mph1.8 kmh 30.43 in1030.5 mb 0.00 in0.0 mm 0.00 in0.0 mm 0.00 in0.0 mm
08:30 AM 31.5°F-0.3°C 23.5°F-4.7°C 72% 0.2 mph ENE0.3 kmh ENE 1.1 mph1.8 kmh 30.43 in1030.5 mb 0.00 in0.0 mm 0.00 in0.0 mm 0.00 in0.0 mm
08:29 AM 31.3°F-0.4°C 23.3°F-4.8°C 72% 2.5 mph E4.0 kmh E 3.4 mph5.5 kmh 30.43 in1030.5 mb 0.00 in0.0 mm 0.00 in0.0 mm 0.00 in0.0 mm
08:28 AM 31.3°F-0.4°C 23.3°F-4.8°C 72% 0.2 mph ENE0.3 kmh ENE 1.1 mph1.8 kmh 30.43 in1030.5 mb 0.00 in0.0 mm 0.00 in0.0 mm 0.00 in0.0 mm
08:27 AM 31.1°F-0.5°C 23.1°F-4.9°C 72% 1.3 mph ENE2.1 kmh ENE 2.2 mph3.5 kmh 30.43 in1030.5 mb 0.00 in0.0 mm 0.00 in0.0 mm 0.00 in0.0 mm
08:26 AM 31.1°F-0.5°C 23.1°F-4.9°C 72% 0.2 mph ENE0.3 kmh ENE 1.1 mph1.8 kmh 30.42 in1030.1 mb 0.00 in0.0 mm 0.00 in0.0 mm 0.00 in0.0 mm
08:25 AM 31.1°F-0.5°C 23.1°F-4.9°C 72% 0.2 mph ENE0.3 kmh ENE 1.1 mph1.8 kmh 30.43 in1030.5 mb 0.00 in0.0 mm 0.00 in0.0 mm 0.00 in0.0 mm
08:24 AM 31.1°F-0.5°C 23.1°F-4.9°C 72% 0.9 mph ENE1.4 kmh ENE 1.1 mph1.8 kmh 30.43 in1030.5 mb 0.00 in0.0 mm 0.00 in0.0 mm 0.00 in0.0 mm
08:23 AM 30.9°F-0.6°C 23.0°F-5.0°C 72% 0.2 mph ENE0.3 kmh ENE 1.1 mph1.8 kmh 30.43 in1030.5 mb 0.00 in0.0 mm 0.00 in0.0 mm 0.00 in0.0 mm
08:22 AM 30.9°F-0.6°C 23.3°F-4.8°C 73% 0.7 mph ENE1.1 kmh ENE 1.1 mph1.8 kmh 30.42 in1030.1 mb 0.00 in0.0 mm 0.00 in0.0 mm 0.00 in0.0 mm
08:21 AM 30.9°F-0.6°C 23.3°F-4.8°C 73% Calm Calm -- 30.43 in1030.5 mb 0.00 in0.0 mm 0.00 in0.0 mm 0.00 in0.0 mm
08:20 AM 30.9°F-0.6°C 23.0°F-5.0°C 72% 1.1 mph ENE1.8 kmh ENE 1.1 mph1.8 kmh 30.43 in1030.5 mb 0.00 in0.0 mm 0.00 in0.0 mm 0.00 in0.0 mm
08:19 AM 30.7°F-0.7°C 22.8°F-5.1°C 72% 1.3 mph ENE2.1 kmh ENE 2.2 mph3.5 kmh 30.42 in1030.1 mb 0.00 in0.0 mm 0.00 in0.0 mm 0.00 in0.0 mm
08:18 AM 30.7°F-0.7°C 22.8°F-5.1°C 72% 2.2 mph ENE3.5 kmh ENE 3.4 mph5.5 kmh 30.42 in1030.1 mb 0.00 in0.0 mm 0.00 in0.0 mm 0.00 in0.0 mm
08:17 AM 30.7°F-0.7°C 22.8°F-5.1°C 72% 0.9 mph ENE1.4 kmh ENE 1.1 mph1.8 kmh 30.43 in1030.5 mb 0.00 in0.0 mm 0.00 in0.0 mm 0.00 in0.0 mm
08:16 AM 30.7°F-0.7°C 23.1°F-4.9°C 73% Calm Calm -- 30.43 in1030.5 mb 0.00 in0.0 mm 0.00 in0.0 mm 0.00 in0.0 mm
08:15 AM 30.7°F-0.7°C 22.8°F-5.1°C 72% 0.4 mph ENE0.6 kmh ENE 1.1 mph1.8 kmh 30.43 in1030.5 mb 0.00 in0.0 mm 0.00 in0.0 mm 0.00 in0.0 mm
08:14 AM 30.6°F-0.8°C 22.7°F-5.2°C 72% 1.3 mph ENE2.1 kmh ENE 2.2 mph3.5 kmh 30.43 in1030.5 mb 0.00 in0.0 mm 0.00 in0.0 mm 0.00 in0.0 mm
08:13 AM 30.6°F-0.8°C 22.7°F-5.2°C 72% 1.6 mph ENE2.6 kmh ENE 2.2 mph3.5 kmh 30.43 in1030.5 mb 0.00 in0.0 mm 0.00 in0.0 mm 0.00 in0.0 mm
08:12 AM 30.6°F-0.8°C 22.7°F-5.2°C 72% 1.3 mph ENE2.1 kmh ENE 2.2 mph3.5 kmh 30.43 in1030.5 mb 0.00 in0.0 mm 0.00 in0.0 mm 0.00 in0.0 mm
08:11 AM 30.4°F-0.9°C 22.5°F-5.3°C 72% 2.0 mph ENE3.2 kmh ENE 2.2 mph3.5 kmh 30.43 in1030.5 mb 0.00 in0.0 mm 0.00 in0.0 mm 0.00 in0.0 mm
08:10 AM 30.4°F-0.9°C 22.5°F-5.3°C 72% 1.8 mph ENE2.9 kmh ENE 2.2 mph3.5 kmh 30.43 in1030.5 mb 0.00 in0.0 mm 0.00 in0.0 mm 0.00 in0.0 mm
08:09 AM 30.4°F-0.9°C 22.5°F-5.3°C 72% 2.2 mph ENE3.5 kmh ENE 3.4 mph5.5 kmh 30.43 in1030.5 mb 0.00 in0.0 mm 0.00 in0.0 mm 0.00 in0.0 mm
08:08 AM 30.4°F-0.9°C 22.5°F-5.3°C 72% 0.9 mph ENE1.4 kmh ENE 1.1 mph1.8 kmh 30.43 in1030.5 mb 0.00 in0.0 mm 0.00 in0.0 mm 0.00 in0.0 mm
08:07 AM 30.4°F-0.9°C 22.5°F-5.3°C 72% 1.6 mph ENE2.6 kmh ENE 2.2 mph3.5 kmh 30.43 in1030.5 mb 0.00 in0.0 mm 0.00 in0.0 mm 0.00 in0.0 mm
08:06 AM 30.2°F-1.0°C 22.3°F-5.4°C 72% Calm Calm -- 30.43 in1030.5 mb 0.00 in0.0 mm 0.00 in0.0 mm 0.00 in0.0 mm
08:05 AM 30.2°F-1.0°C 22.3°F-5.4°C 72% 1.1 mph ENE1.8 kmh ENE 1.1 mph1.8 kmh 30.43 in1030.5 mb 0.00 in0.0 mm 0.00 in0.0 mm 0.00 in0.0 mm
08:04 AM 30.2°F-1.0°C 22.3°F-5.4°C 72% 1.3 mph ENE2.1 kmh ENE 2.2 mph3.5 kmh 30.43 in1030.5 mb 0.00 in0.0 mm 0.00 in0.0 mm 0.00 in0.0 mm
08:03 AM 30.0°F-1.1°C 22.1°F-5.5°C 72% 2.2 mph E3.5 kmh E 3.4 mph5.5 kmh 30.43 in1030.5 mb 0.00 in0.0 mm 0.00 in0.0 mm 0.00 in0.0 mm
08:02 AM 30.0°F-1.1°C 22.1°F-5.5°C 72% 1.1 mph ENE1.8 kmh ENE 1.1 mph1.8 kmh 30.43 in1030.5 mb 0.00 in0.0 mm 0.00 in0.0 mm 0.00 in0.0 mm
08:01 AM 29.8°F-1.2°C 21.9°F-5.6°C 72% 1.1 mph ENE1.8 kmh ENE 1.1 mph1.8 kmh 30.43 in1030.5 mb 0.00 in0.0 mm 0.00 in0.0 mm 0.00 in0.0 mm
08:00 AM 29.8°F-1.2°C 22.2°F-5.4°C 73% Calm Calm -- 30.43 in1030.5 mb 0.00 in0.0 mm 0.00 in0.0 mm 0.00 in0.0 mm
07:59 AM 29.7°F-1.3°C 21.8°F-5.7°C 72% 1.3 mph ENE2.1 kmh ENE 2.2 mph3.5 kmh 30.44 in1030.8 mb 0.00 in0.0 mm 0.00 in0.0 mm 0.00 in0.0 mm
07:58 AM 29.7°F-1.3°C 21.8°F-5.7°C 72% 0.4 mph ENE0.6 kmh ENE 1.1 mph1.8 kmh 30.43 in1030.5 mb 0.00 in0.0 mm 0.00 in0.0 mm 0.00 in0.0 mm
07:57 AM 29.5°F-1.4°C 21.9°F-5.6°C 73% 1.6 mph ENE2.6 kmh ENE 2.2 mph3.5 kmh 30.43 in1030.5 mb 0.00 in0.0 mm 0.00 in0.0 mm 0.00 in0.0 mm
07:56 AM 29.5°F-1.4°C 21.9°F-5.6°C 73% 1.1 mph ENE1.8 kmh ENE 1.1 mph1.8 kmh 30.43 in1030.5 mb 0.00 in0.0 mm 0.00 in0.0 mm 0.00 in0.0 mm
07:55 AM 29.3°F-1.5°C 21.4°F-5.9°C 72% 2.7 mph E4.3 kmh E 3.4 mph5.5 kmh 30.43 in1030.5 mb 0.00 in0.0 mm 0.00 in0.0 mm 0.00 in0.0 mm
07:54 AM 29.3°F-1.5°C 21.4°F-5.9°C 72% 2.2 mph E3.5 kmh E 2.2 mph3.5 kmh 30.43 in1030.5 mb 0.00 in0.0 mm 0.00 in0.0 mm 0.00 in0.0 mm
07:53 AM 29.3°F-1.5°C 21.7°F-5.7°C 73% 2.5 mph E4.0 kmh E 3.4 mph5.5 kmh 30.43 in1030.5 mb 0.00 in0.0 mm 0.00 in0.0 mm 0.00 in0.0 mm
07:52 AM 29.3°F-1.5°C 21.7°F-5.7°C 73% 1.1 mph ENE1.8 kmh ENE 2.2 mph3.5 kmh 30.43 in1030.5 mb 0.00 in0.0 mm 0.00 in0.0 mm 0.00 in0.0 mm
07:51 AM 29.1°F-1.6°C 21.5°F-5.8°C 73% 0.9 mph ENE1.4 kmh ENE 1.1 mph1.8 kmh 30.43 in1030.5 mb 0.00 in0.0 mm 0.00 in0.0 mm 0.00 in0.0 mm
07:50 AM 29.1°F-1.6°C 21.5°F-5.8°C 73% 1.3 mph ENE2.1 kmh ENE 2.2 mph3.5 kmh 30.43 in1030.5 mb 0.00 in0.0 mm 0.00 in0.0 mm 0.00 in0.0 mm
07:49 AM 29.1°F-1.6°C 21.5°F-5.8°C 73% 1.6 mph ENE2.6 kmh ENE 2.2 mph3.5 kmh 30.43 in1030.5 mb 0.00 in0.0 mm 0.00 in0.0 mm 0.00 in0.0 mm
07:48 AM 29.1°F-1.6°C 21.2°F-6.0°C 72% 2.7 mph ENE4.3 kmh ENE 3.4 mph5.5 kmh 30.43 in1030.5 mb 0.00 in0.0 mm 0.00 in0.0 mm 0.00 in0.0 mm
07:47 AM 28.9°F-1.7°C 21.0°F-6.1°C 72% 1.6 mph ENE2.6 kmh ENE 2.2 mph3.5 kmh 30.43 in1030.5 mb 0.00 in0.0 mm 0.00 in0.0 mm 0.00 in0.0 mm
07:46 AM 28.8°F-1.8°C 20.9°F-6.2°C 72% 1.1 mph ENE1.8 kmh ENE 1.1 mph1.8 kmh 30.43 in1030.5 mb 0.00 in0.0 mm 0.00 in0.0 mm 0.00 in0.0 mm
07:45 AM 28.8°F-1.8°C 20.9°F-6.2°C 72% 1.8 mph ENE2.9 kmh ENE 2.2 mph3.5 kmh 30.43 in1030.5 mb 0.00 in0.0 mm 0.00 in0.0 mm 0.00 in0.0 mm
07:44 AM 28.6°F-1.9°C 21.1°F-6.1°C 73% 1.1 mph ENE1.8 kmh ENE 1.1 mph1.8 kmh 30.43 in1030.5 mb 0.00 in0.0 mm 0.00 in0.0 mm 0.00 in0.0 mm
07:43 AM 28.6°F-1.9°C 21.1°F-6.1°C 73% 1.1 mph ENE1.8 kmh ENE 1.1 mph1.8 kmh 30.42 in1030.1 mb 0.00 in0.0 mm 0.00 in0.0 mm 0.00 in0.0 mm
07:42 AM 28.6°F-1.9°C 21.1°F-6.1°C 73% 0.9 mph ENE1.4 kmh ENE 1.1 mph1.8 kmh 30.43 in1030.5 mb 0.00 in0.0 mm 0.00 in0.0 mm 0.00 in0.0 mm
07:41 AM 28.4°F-2.0°C 20.9°F-6.2°C 73% 0.9 mph ENE1.4 kmh ENE 1.1 mph1.8 kmh 30.43 in1030.5 mb 0.00 in0.0 mm 0.00 in0.0 mm 0.00 in0.0 mm
07:40 AM 28.4°F-2.0°C 20.9°F-6.2°C 73% 1.6 mph ENE2.6 kmh ENE 2.2 mph3.5 kmh 30.42 in1030.1 mb 0.00 in0.0 mm 0.00 in0.0 mm 0.00 in0.0 mm
07:39 AM 28.4°F-2.0°C 20.9°F-6.2°C 73% 1.6 mph ENE2.6 kmh ENE 2.2 mph3.5 kmh 30.43 in1030.5 mb 0.00 in0.0 mm 0.00 in0.0 mm 0.00 in0.0 mm
07:38 AM 28.4°F-2.0°C 20.5°F-6.4°C 72% 1.8 mph E2.9 kmh E 3.4 mph5.5 kmh 30.43 in1030.5 mb 0.00 in0.0 mm 0.00 in0.0 mm 0.00 in0.0 mm
07:37 AM 28.4°F-2.0°C 20.5°F-6.4°C 72% 2.2 mph ENE3.5 kmh ENE 2.2 mph3.5 kmh 30.43 in1030.5 mb 0.00 in0.0 mm 0.00 in0.0 mm 0.00 in0.0 mm
07:36 AM 28.2°F-2.1°C 20.4°F-6.4°C 72% 0.4 mph ENE0.6 kmh ENE 1.1 mph1.8 kmh 30.43 in1030.5 mb 0.00 in0.0 mm 0.00 in0.0 mm 0.00 in0.0 mm
07:35 AM 28.2°F-2.1°C 20.4°F-6.4°C 72% 1.3 mph E2.1 kmh E 2.2 mph3.5 kmh 30.43 in1030.5 mb 0.00 in0.0 mm 0.00 in0.0 mm 0.00 in0.0 mm
07:34 AM 28.2°F-2.1°C 20.4°F-6.4°C 72% 1.1 mph ENE1.8 kmh ENE 1.1 mph1.8 kmh 30.43 in1030.5 mb 0.00 in0.0 mm 0.00 in0.0 mm 0.00 in0.0 mm
07:33 AM 28.0°F-2.2°C 20.2°F-6.6°C 72% 1.8 mph ENE2.9 kmh ENE 2.2 mph3.5 kmh 30.42 in1030.1 mb 0.00 in0.0 mm 0.00 in0.0 mm 0.00 in0.0 mm
07:32 AM 28.0°F-2.2°C 20.2°F-6.6°C 72% 1.3 mph ENE2.1 kmh ENE 2.2 mph3.5 kmh 30.43 in1030.5 mb 0.00 in0.0 mm 0.00 in0.0 mm 0.00 in0.0 mm
07:31 AM 27.9°F-2.3°C 20.1°F-6.6°C 72% 2.7 mph E4.3 kmh E 3.4 mph5.5 kmh 30.43 in1030.5 mb 0.00 in0.0 mm 0.00 in0.0 mm 0.00 in0.0 mm
07:30 AM 27.9°F-2.3°C 20.1°F-6.6°C 72% 2.7 mph E4.3 kmh E 3.4 mph5.5 kmh 30.43 in1030.5 mb 0.00 in0.0 mm 0.00 in0.0 mm 0.00 in0.0 mm
07:29 AM 27.7°F-2.4°C 19.9°F-6.7°C 72% 2.5 mph E4.0 kmh E 3.4 mph5.5 kmh 30.43 in1030.5 mb 0.00 in0.0 mm 0.00 in0.0 mm 0.00 in0.0 mm
07:28 AM 27.7°F-2.4°C 19.9°F-6.7°C 72% 2.5 mph E4.0 kmh E 3.4 mph5.5 kmh 30.43 in1030.5 mb 0.00 in0.0 mm 0.00 in0.0 mm 0.00 in0.0 mm
07:27 AM 27.7°F-2.4°C 19.9°F-6.7°C 72% 1.3 mph ENE2.1 kmh ENE 2.2 mph3.5 kmh 30.42 in1030.1 mb 0.00 in0.0 mm 0.00 in0.0 mm 0.00 in0.0 mm
07:26 AM 27.5°F-2.5°C 19.7°F-6.8°C 72% Calm Calm -- 30.43 in1030.5 mb 0.00 in0.0 mm 0.00 in0.0 mm 0.00 in0.0 mm
07:25 AM 27.5°F-2.5°C 19.7°F-6.8°C 72% Calm Calm -- 30.42 in1030.1 mb 0.00 in0.0 mm 0.00 in0.0 mm 0.00 in0.0 mm
07:24 AM 27.5°F-2.5°C 19.7°F-6.8°C 72% 0.2 mph ENE0.3 kmh ENE 1.1 mph1.8 kmh 30.42 in1030.1 mb 0.00 in0.0 mm 0.00 in0.0 mm 0.00 in0.0 mm
07:23 AM 27.5°F-2.5°C 19.7°F-6.8°C 72% 0.9 mph ENE1.4 kmh ENE 1.1 mph1.8 kmh 30.43 in1030.5 mb 0.00 in0.0 mm 0.00 in0.0 mm 0.00 in0.0 mm
07:22 AM 27.5°F-2.5°C 19.7°F-6.8°C 72% 1.1 mph ENE1.8 kmh ENE 1.1 mph1.8 kmh 30.43 in1030.5 mb 0.00 in0.0 mm 0.00 in0.0 mm 0.00 in0.0 mm
07:21 AM 27.3°F-2.6°C 19.5°F-6.9°C 72% 1.1 mph ENE1.8 kmh ENE 1.1 mph1.8 kmh 30.43 in1030.5 mb 0.00 in0.0 mm 0.00 in0.0 mm 0.00 in0.0 mm
07:20 AM 27.3°F-2.6°C 19.5°F-6.9°C 72% 0.7 mph ENE1.1 kmh ENE 1.1 mph1.8 kmh 30.43 in1030.5 mb 0.00 in0.0 mm 0.00 in0.0 mm 0.00 in0.0 mm
07:19 AM 27.3°F-2.6°C 19.5°F-6.9°C 72% 0.4 mph ENE0.6 kmh ENE 1.1 mph1.8 kmh 30.43 in1030.5 mb 0.00 in0.0 mm 0.00 in0.0 mm 0.00 in0.0 mm
07:18 AM 27.1°F-2.7°C 19.3°F-7.1°C 72% Calm Calm -- 30.42 in1030.1 mb 0.00 in0.0 mm 0.00 in0.0 mm 0.00 in0.0 mm
07:17 AM 27.1°F-2.7°C 19.3°F-7.1°C 72% 0.4 mph ENE0.6 kmh ENE 1.1 mph1.8 kmh 30.42 in1030.1 mb 0.00 in0.0 mm 0.00 in0.0 mm 0.00 in0.0 mm
07:16 AM 27.0°F-2.8°C 19.2°F-7.1°C 72% 0.9 mph ENE1.4 kmh ENE 1.1 mph1.8 kmh 30.41 in1029.8 mb 0.00 in0.0 mm 0.00 in0.0 mm 0.00 in0.0 mm
07:15 AM 27.0°F-2.8°C 19.2°F-7.1°C 72% 1.3 mph ENE2.1 kmh ENE 2.2 mph3.5 kmh 30.42 in1030.1 mb 0.00 in0.0 mm 0.00 in0.0 mm 0.00 in0.0 mm
07:14 AM 26.8°F-2.9°C 19.0°F-7.2°C 72% 1.1 mph ENE1.8 kmh ENE 1.1 mph1.8 kmh 30.42 in1030.1 mb 0.00 in0.0 mm 0.00 in0.0 mm 0.00 in0.0 mm
07:13 AM 26.8°F-2.9°C 19.0°F-7.2°C 72% 0.7 mph ENE1.1 kmh ENE 1.1 mph1.8 kmh 30.42 in1030.1 mb 0.00 in0.0 mm 0.00 in0.0 mm 0.00 in0.0 mm
07:12 AM 26.8°F-2.9°C 19.0°F-7.2°C 72% 0.9 mph ENE1.4 kmh ENE 1.1 mph1.8 kmh 30.42 in1030.1 mb 0.00 in0.0 mm 0.00 in0.0 mm 0.00 in0.0 mm
07:11 AM 26.8°F-2.9°C 19.0°F-7.2°C 72% 0.7 mph ENE1.1 kmh ENE 1.1 mph1.8 kmh 30.42 in1030.1 mb 0.00 in0.0 mm 0.00 in0.0 mm 0.00 in0.0 mm
07:10 AM 26.8°F-2.9°C 19.0°F-7.2°C 72% 1.8 mph ENE2.9 kmh ENE 2.2 mph3.5 kmh 30.42 in1030.1 mb 0.00 in0.0 mm 0.00 in0.0 mm 0.00 in0.0 mm
07:09 AM 26.8°F-2.9°C 19.0°F-7.2°C 72% 0.9 mph ENE1.4 kmh ENE 1.1 mph1.8 kmh 30.42 in1030.1 mb 0.00 in0.0 mm 0.00 in0.0 mm 0.00 in0.0 mm
07:08 AM 26.8°F-2.9°C 19.0°F-7.2°C 72% 2.2 mph ENE3.5 kmh ENE 3.4 mph5.5 kmh 30.42 in1030.1 mb 0.00 in0.0 mm 0.00 in0.0 mm 0.00 in0.0 mm
07:07 AM 26.8°F-2.9°C 19.0°F-7.2°C 72% 1.1 mph ENE1.8 kmh ENE 1.1 mph1.8 kmh 30.42 in1030.1 mb 0.00 in0.0 mm 0.00 in0.0 mm 0.00 in0.0 mm
07:06 AM 26.6°F-3.0°C 18.8°F-7.3°C 72% 1.1 mph ENE1.8 kmh ENE 2.2 mph3.5 kmh 30.42 in1030.1 mb 0.00 in0.0 mm 0.00 in0.0 mm 0.00 in0.0 mm
07:05 AM 26.6°F-3.0°C 18.8°F-7.3°C 72% Calm Calm -- 30.42 in1030.1 mb 0.00 in0.0 mm 0.00 in0.0 mm 0.00 in0.0 mm
07:04 AM 26.6°F-3.0°C 18.8°F-7.3°C 72% Calm Calm -- 30.42 in1030.1 mb 0.00 in0.0 mm 0.00 in0.0 mm 0.00 in0.0 mm
07:03 AM 26.6°F-3.0°C 18.8°F-7.3°C 72% 0.9 mph ENE1.4 kmh ENE 1.1 mph1.8 kmh 30.42 in1030.1 mb 0.00 in0.0 mm 0.00 in0.0 mm 0.00 in0.0 mm
07:02 AM 26.6°F-3.0°C 18.8°F-7.3°C 72% 2.0 mph E3.2 kmh E 2.2 mph3.5 kmh 30.42 in1030.1 mb 0.00 in0.0 mm 0.00 in0.0 mm 0.00 in0.0 mm
07:01 AM 26.4°F-3.1°C 18.6°F-7.4°C 72% Calm Calm -- 30.42 in1030.1 mb 0.00 in0.0 mm 0.00 in0.0 mm 0.00 in0.0 mm
07:00 AM 26.4°F-3.1°C 18.6°F-7.4°C 72% 0.9 mph NE1.4 kmh NE 1.1 mph1.8 kmh 30.42 in1030.1 mb 0.00 in0.0 mm 0.00 in0.0 mm 0.00 in0.0 mm
06:59 AM 26.4°F-3.1°C 18.3°F-7.6°C 71% 1.1 mph NE1.8 kmh NE 1.1 mph1.8 kmh 30.42 in1030.1 mb 0.00 in0.0 mm 0.00 in0.0 mm 0.00 in0.0 mm
06:58 AM 26.4°F-3.1°C 18.6°F-7.4°C 72% 0.7 mph NE1.1 kmh NE 1.1 mph1.8 kmh 30.42 in1030.1 mb 0.00 in0.0 mm 0.00 in0.0 mm 0.00 in0.0 mm
06:57 AM 26.4°F-3.1°C 18.3°F-7.6°C 71% Calm Calm -- 30.42 in1030.1 mb 0.00 in0.0 mm 0.00 in0.0 mm 0.00 in0.0 mm
06:56 AM 26.2°F-3.2°C 18.1°F-7.7°C 71% 1.1 mph NE1.8 kmh NE 1.1 mph1.8 kmh 30.42 in1030.1 mb 0.00 in0.0 mm 0.00 in0.0 mm 0.00 in0.0 mm
06:55 AM 26.2°F-3.2°C 18.1°F-7.7°C 71% 1.1 mph NE1.8 kmh NE 1.1 mph1.8 kmh 30.42 in1030.1 mb 0.00 in0.0 mm 0.00 in0.0 mm 0.00 in0.0 mm
06:54 AM 26.2°F-3.2°C 18.1°F-7.7°C 71% 1.1 mph NE1.8 kmh NE 1.1 mph1.8 kmh 30.42 in1030.1 mb 0.00 in0.0 mm 0.00 in0.0 mm 0.00 in0.0 mm
06:53 AM 26.2°F-3.2°C 18.1°F-7.7°C 71% 1.1 mph ENE1.8 kmh ENE 1.1 mph1.8 kmh 30.42 in1030.1 mb 0.00 in0.0 mm 0.00 in0.0 mm 0.00 in0.0 mm
06:52 AM 26.2°F-3.2°C 18.1°F-7.7°C 71% 0.9 mph NE1.4 kmh NE 1.1 mph1.8 kmh 30.42 in1030.1 mb 0.00 in0.0 mm 0.00 in0.0 mm 0.00 in0.0 mm
06:51 AM 26.2°F-3.2°C 18.1°F-7.7°C 71% 0.9 mph NE1.4 kmh NE 1.1 mph1.8 kmh 30.43 in1030.5 mb 0.00 in0.0 mm 0.00 in0.0 mm 0.00 in0.0 mm
06:50 AM 26.2°F-3.2°C 18.1°F-7.7°C 71% 1.3 mph NE2.1 kmh NE 2.2 mph3.5 kmh 30.42 in1030.1 mb 0.00 in0.0 mm 0.00 in0.0 mm 0.00 in0.0 mm
06:49 AM 26.2°F-3.2°C 18.1°F-7.7°C 71% 0.9 mph NE1.4 kmh NE 1.1 mph1.8 kmh 30.42 in1030.1 mb 0.00 in0.0 mm 0.00 in0.0 mm 0.00 in0.0 mm
06:48 AM 26.2°F-3.2°C 18.1°F-7.7°C 71% Calm Calm -- 30.42 in1030.1 mb 0.00 in0.0 mm 0.00 in0.0 mm 0.00 in0.0 mm
06:47 AM 26.2°F-3.2°C 18.1°F-7.7°C 71% 1.3 mph NE2.1 kmh NE 2.2 mph3.5 kmh 30.42 in1030.1 mb 0.00 in0.0 mm 0.00 in0.0 mm 0.00 in0.0 mm
06:46 AM 26.1°F-3.3°C 18.0°F-7.8°C 71% 1.1 mph ENE1.8 kmh ENE 1.1 mph1.8 kmh 30.42 in1030.1 mb 0.00 in0.0 mm 0.00 in0.0 mm 0.00 in0.0 mm
06:45 AM 26.1°F-3.3°C 18.0°F-7.8°C 71% 1.3 mph ENE2.1 kmh ENE 2.2 mph3.5 kmh 30.41 in1029.8 mb 0.00 in0.0 mm 0.00 in0.0 mm 0.00 in0.0 mm
06:44 AM 26.1°F-3.3°C 18.0°F-7.8°C 71% 2.5 mph ENE4.0 kmh ENE 3.4 mph5.5 kmh 30.41 in1029.8 mb 0.00 in0.0 mm 0.00 in0.0 mm 0.00 in0.0 mm
06:43 AM 26.1°F-3.3°C 18.0°F-7.8°C 71% 0.9 mph ENE1.4 kmh ENE 1.1 mph1.8 kmh 30.42 in1030.1 mb 0.00 in0.0 mm 0.00 in0.0 mm 0.00 in0.0 mm
06:42 AM 26.1°F-3.3°C 17.7°F-7.9°C 70% 1.1 mph ENE1.8 kmh ENE 1.1 mph1.8 kmh 30.42 in1030.1 mb 0.00 in0.0 mm 0.00 in0.0 mm 0.00 in0.0 mm
06:41 AM 26.1°F-3.3°C 17.7°F-7.9°C 70% 1.8 mph ENE2.9 kmh ENE 2.2 mph3.5 kmh 30.41 in1029.8 mb 0.00 in0.0 mm 0.00 in0.0 mm 0.00 in0.0 mm
06:40 AM 26.1°F-3.3°C 17.7°F-7.9°C 70% 1.6 mph ENE2.6 kmh ENE 2.2 mph3.5 kmh 30.41 in1029.8 mb 0.00 in0.0 mm 0.00 in0.0 mm 0.00 in0.0 mm
06:38 AM 26.1°F-3.3°C 17.7°F-7.9°C 70% 1.1 mph ENE1.8 kmh ENE 1.1 mph1.8 kmh 30.42 in1030.1 mb 0.00 in0.0 mm 0.00 in0.0 mm 0.00 in0.0 mm
06:37 AM 26.1°F-3.3°C 17.7°F-7.9°C 70% 2.5 mph E4.0 kmh E 3.4 mph5.5 kmh 30.42 in1030.1 mb 0.00 in0.0 mm 0.00 in0.0 mm 0.00 in0.0 mm
06:36 AM 26.1°F-3.3°C 17.7°F-7.9°C 70% 1.6 mph ENE2.6 kmh ENE 2.2 mph3.5 kmh 30.41 in1029.8 mb 0.00 in0.0 mm 0.00 in0.0 mm 0.00 in0.0 mm
06:35 AM 25.9°F-3.4°C 17.5°F-8.1°C 70% 2.2 mph ENE3.5 kmh ENE 3.4 mph5.5 kmh 30.41 in1029.8 mb 0.00 in0.0 mm 0.00 in0.0 mm 0.00 in0.0 mm
06:34 AM 25.9°F-3.4°C 17.5°F-8.1°C 70% 0.2 mph ENE0.3 kmh ENE 1.1 mph1.8 kmh 30.42 in1030.1 mb 0.00 in0.0 mm 0.00 in0.0 mm 0.00 in0.0 mm
06:33 AM 25.9°F-3.4°C 17.5°F-8.1°C 70% 0.7 mph ENE1.1 kmh ENE 1.1 mph1.8 kmh 30.42 in1030.1 mb 0.00 in0.0 mm 0.00 in0.0 mm 0.00 in0.0 mm
06:32 AM 25.9°F-3.4°C 17.5°F-8.1°C 70% 1.3 mph ENE2.1 kmh ENE 2.2 mph3.5 kmh 30.41 in1029.8 mb 0.00 in0.0 mm 0.00 in0.0 mm 0.00 in0.0 mm
06:31 AM 25.9°F-3.4°C 17.5°F-8.1°C 70% 1.1 mph ENE1.8 kmh ENE 1.1 mph1.8 kmh 30.41 in1029.8 mb 0.00 in0.0 mm 0.00 in0.0 mm 0.00 in0.0 mm
06:30 AM 25.9°F-3.4°C 17.5°F-8.1°C 70% 1.1 mph ENE1.8 kmh ENE 1.1 mph1.8 kmh 30.42 in1030.1 mb 0.00 in0.0 mm 0.00 in0.0 mm 0.00 in0.0 mm
06:29 AM 25.9°F-3.4°C 17.5°F-8.1°C 70% 1.3 mph ENE2.1 kmh ENE 2.2 mph3.5 kmh 30.42 in1030.1 mb 0.00 in0.0 mm 0.00 in0.0 mm 0.00 in0.0 mm
06:28 AM 25.9°F-3.4°C 17.2°F-8.2°C 69% 0.2 mph ENE0.3 kmh ENE 1.1 mph1.8 kmh 30.41 in1029.8 mb 0.00 in0.0 mm 0.00 in0.0 mm 0.00 in0.0 mm
06:27 AM 25.9°F-3.4°C 17.2°F-8.2°C 69% 1.6 mph ENE2.6 kmh ENE 2.2 mph3.5 kmh 30.41 in1029.8 mb 0.00 in0.0 mm 0.00 in0.0 mm 0.00 in0.0 mm
06:25 AM 25.7°F-3.5°C 17.0°F-8.3°C 69% 1.1 mph ENE1.8 kmh ENE 3.4 mph5.5 kmh 30.41 in1029.8 mb 0.00 in0.0 mm 0.00 in0.0 mm 0.00 in0.0 mm
06:24 AM 25.7°F-3.5°C 17.0°F-8.3°C 69% 0.9 mph NE1.4 kmh NE 1.1 mph1.8 kmh 30.42 in1030.1 mb 0.00 in0.0 mm 0.00 in0.0 mm 0.00 in0.0 mm
06:23 AM 25.7°F-3.5°C 17.0°F-8.3°C 69% 0.9 mph NE1.4 kmh NE 1.1 mph1.8 kmh 30.42 in1030.1 mb 0.00 in0.0 mm 0.00 in0.0 mm 0.00 in0.0 mm
06:22 AM 25.5°F-3.6°C 16.8°F-8.4°C 69% Calm Calm -- 30.42 in1030.1 mb 0.00 in0.0 mm 0.00 in0.0 mm 0.00 in0.0 mm
06:21 AM 25.5°F-3.6°C 16.8°F-8.4°C 69% 0.4 mph NE0.6 kmh NE 1.1 mph1.8 kmh 30.41 in1029.8 mb 0.00 in0.0 mm 0.00 in0.0 mm 0.00 in0.0 mm
06:20 AM 25.5°F-3.6°C 16.8°F-8.4°C 69% 0.7 mph NE1.1 kmh NE 1.1 mph1.8 kmh 30.42 in1030.1 mb 0.00 in0.0 mm 0.00 in0.0 mm 0.00 in0.0 mm
06:19 AM 25.5°F-3.6°C 16.8°F-8.4°C 69% 1.8 mph NE2.9 kmh NE 2.2 mph3.5 kmh 30.42 in1030.1 mb 0.00 in0.0 mm 0.00 in0.0 mm 0.00 in0.0 mm
06:18 AM 25.5°F-3.6°C 16.8°F-8.4°C 69% 0.7 mph NE1.1 kmh NE 1.1 mph1.8 kmh 30.41 in1029.8 mb 0.00 in0.0 mm 0.00 in0.0 mm 0.00 in0.0 mm
06:17 AM 25.5°F-3.6°C 16.8°F-8.4°C 69% 1.1 mph NE1.8 kmh NE 1.1 mph1.8 kmh 30.41 in1029.8 mb 0.00 in0.0 mm 0.00 in0.0 mm 0.00 in0.0 mm
06:16 AM 25.5°F-3.6°C 16.8°F-8.4°C 69% 0.4 mph NE0.6 kmh NE 1.1 mph1.8 kmh 30.41 in1029.8 mb 0.00 in0.0 mm 0.00 in0.0 mm 0.00 in0.0 mm
06:15 AM 25.5°F-3.6°C 16.8°F-8.4°C 69% 0.9 mph NE1.4 kmh NE 1.1 mph1.8 kmh 30.41 in1029.8 mb 0.00 in0.0 mm 0.00 in0.0 mm 0.00 in0.0 mm
06:14 AM 25.5°F-3.6°C 16.4°F-8.7°C 68% Calm Calm -- 30.41 in1029.8 mb 0.00 in0.0 mm 0.00 in0.0 mm 0.00 in0.0 mm
06:13 AM 25.5°F-3.6°C 16.4°F-8.7°C 68% 0.7 mph NE1.1 kmh NE 1.1 mph1.8 kmh 30.42 in1030.1 mb 0.00 in0.0 mm 0.00 in0.0 mm 0.00 in0.0 mm
06:12 AM 25.5°F-3.6°C 16.4°F-8.7°C 68% 1.6 mph NE2.6 kmh NE 2.2 mph3.5 kmh 30.41 in1029.8 mb 0.00 in0.0 mm 0.00 in0.0 mm 0.00 in0.0 mm
06:11 AM 25.5°F-3.6°C 16.4°F-8.7°C 68% 0.7 mph NE1.1 kmh NE 1.1 mph1.8 kmh 30.42 in1030.1 mb 0.00 in0.0 mm 0.00 in0.0 mm 0.00 in0.0 mm
06:10 AM 25.5°F-3.6°C 16.4°F-8.7°C 68% 0.2 mph NE0.3 kmh NE 1.1 mph1.8 kmh 30.41 in1029.8 mb 0.00 in0.0 mm 0.00 in0.0 mm 0.00 in0.0 mm
06:09 AM 25.7°F-3.5°C 16.6°F-8.6°C 68% Calm Calm -- 30.42 in1030.1 mb 0.00 in0.0 mm 0.00 in0.0 mm 0.00 in0.0 mm
06:08 AM 25.7°F-3.5°C 16.6°F-8.6°C 68% Calm Calm -- 30.41 in1029.8 mb 0.00 in0.0 mm 0.00 in0.0 mm 0.00 in0.0 mm
06:07 AM 25.7°F-3.5°C 16.6°F-8.6°C 68% 1.1 mph NE1.8 kmh NE 1.1 mph1.8 kmh 30.41 in1029.8 mb 0.00 in0.0 mm 0.00 in0.0 mm 0.00 in0.0 mm
06:06 AM 25.7°F-3.5°C 16.6°F-8.6°C 68% 1.1 mph NE1.8 kmh NE 2.2 mph3.5 kmh 30.41 in1029.8 mb 0.00 in0.0 mm 0.00 in0.0 mm 0.00 in0.0 mm
06:05 AM 25.7°F-3.5°C 16.6°F-8.6°C 68% 1.3 mph NE2.1 kmh NE 2.2 mph3.5 kmh 30.41 in1029.8 mb 0.00 in0.0 mm 0.00 in0.0 mm 0.00 in0.0 mm
06:04 AM 25.7°F-3.5°C 16.6°F-8.6°C 68% 0.9 mph NE1.4 kmh NE 1.1 mph1.8 kmh 30.41 in1029.8 mb 0.00 in0.0 mm 0.00 in0.0 mm 0.00 in0.0 mm
06:03 AM 25.5°F-3.6°C 16.1°F-8.8°C 67% 0.9 mph NE1.4 kmh NE 1.1 mph1.8 kmh 30.41 in1029.8 mb 0.00 in0.0 mm 0.00 in0.0 mm 0.00 in0.0 mm
06:02 AM 25.5°F-3.6°C 16.4°F-8.7°C 68% 0.9 mph NE1.4 kmh NE 1.1 mph1.8 kmh 30.41 in1029.8 mb 0.00 in0.0 mm 0.00 in0.0 mm 0.00 in0.0 mm
06:01 AM 25.5°F-3.6°C 16.1°F-8.8°C 67% 0.2 mph NE0.3 kmh NE 1.1 mph1.8 kmh 30.41 in1029.8 mb 0.00 in0.0 mm 0.00 in0.0 mm 0.00 in0.0 mm
06:00 AM 25.5°F-3.6°C 16.1°F-8.8°C 67% Calm Calm -- 30.41 in1029.8 mb 0.00 in0.0 mm 0.00 in0.0 mm 0.00 in0.0 mm
05:59 AM 25.3°F-3.7°C 15.9°F-8.9°C 67% 0.7 mph NE1.1 kmh NE 1.1 mph1.8 kmh 30.41 in1029.8 mb 0.00 in0.0 mm 0.00 in0.0 mm 0.00 in0.0 mm
05:58 AM 25.3°F-3.7°C 15.9°F-8.9°C 67% Calm Calm -- 30.41 in1029.8 mb 0.00 in0.0 mm 0.00 in0.0 mm 0.00 in0.0 mm
05:57 AM 25.3°F-3.7°C 15.9°F-8.9°C 67% 0.7 mph NE1.1 kmh NE 1.1 mph1.8 kmh 30.41 in1029.8 mb 0.00 in0.0 mm 0.00 in0.0 mm 0.00 in0.0 mm
05:56 AM 25.3°F-3.7°C 15.6°F-9.1°C 66% 0.7 mph NE1.1 kmh NE 1.1 mph1.8 kmh 30.41 in1029.8 mb 0.00 in0.0 mm 0.00 in0.0 mm 0.00 in0.0 mm
05:55 AM 25.5°F-3.6°C 15.7°F-9.1°C 66% Calm Calm -- 30.41 in1029.8 mb 0.00 in0.0 mm 0.00 in0.0 mm 0.00 in0.0 mm
05:54 AM 25.5°F-3.6°C 15.7°F-9.1°C 66% Calm Calm -- 30.41 in1029.8 mb 0.00 in0.0 mm 0.00 in0.0 mm 0.00 in0.0 mm
05:53 AM 25.5°F-3.6°C 15.7°F-9.1°C 66% 0.4 mph NE0.6 kmh NE 1.1 mph1.8 kmh 30.40 in1029.5 mb 0.00 in0.0 mm 0.00 in0.0 mm 0.00 in0.0 mm
05:52 AM 25.5°F-3.6°C 15.7°F-9.1°C 66% 0.9 mph NE1.4 kmh NE 1.1 mph1.8 kmh 30.41 in1029.8 mb 0.00 in0.0 mm 0.00 in0.0 mm 0.00 in0.0 mm
05:51 AM 25.5°F-3.6°C 15.4°F-9.2°C 65% 1.1 mph NE1.8 kmh NE 1.1 mph1.8 kmh 30.41 in1029.8 mb 0.00 in0.0 mm 0.00 in0.0 mm 0.00 in0.0 mm
05:50 AM 25.7°F-3.5°C 15.9°F-8.9°C 66% Calm Calm -- 30.40 in1029.5 mb 0.00 in0.0 mm 0.00 in0.0 mm 0.00 in0.0 mm
05:49 AM 25.7°F-3.5°C 15.6°F-9.1°C 65% 1.3 mph NE2.1 kmh NE 2.2 mph3.5 kmh 30.41 in1029.8 mb 0.00 in0.0 mm 0.00 in0.0 mm 0.00 in0.0 mm
05:48 AM 25.7°F-3.5°C 15.6°F-9.1°C 65% 1.3 mph NE2.1 kmh NE 2.2 mph3.5 kmh 30.41 in1029.8 mb 0.00 in0.0 mm 0.00 in0.0 mm 0.00 in0.0 mm
05:47 AM 25.7°F-3.5°C 15.6°F-9.1°C 65% 0.9 mph NE1.4 kmh NE 1.1 mph1.8 kmh 30.41 in1029.8 mb 0.00 in0.0 mm 0.00 in0.0 mm 0.00 in0.0 mm
05:46 AM 25.7°F-3.5°C 15.6°F-9.1°C 65% 0.2 mph NE0.3 kmh NE 1.1 mph1.8 kmh 30.41 in1029.8 mb 0.00 in0.0 mm 0.00 in0.0 mm 0.00 in0.0 mm
05:45 AM 25.5°F-3.6°C 15.4°F-9.2°C 65% 1.1 mph NE1.8 kmh NE 1.1 mph1.8 kmh 30.41 in1029.8 mb 0.00 in0.0 mm 0.00 in0.0 mm 0.00 in0.0 mm
05:44 AM 25.5°F-3.6°C 15.4°F-9.2°C 65% Calm Calm -- 30.41 in1029.8 mb 0.00 in0.0 mm 0.00 in0.0 mm 0.00 in0.0 mm
05:43 AM 25.5°F-3.6°C 15.4°F-9.2°C 65% 0.9 mph NE1.4 kmh NE 1.1 mph1.8 kmh 30.41 in1029.8 mb 0.00 in0.0 mm 0.00 in0.0 mm 0.00 in0.0 mm
05:42 AM 25.5°F-3.6°C 15.4°F-9.2°C 65% 0.7 mph NE1.1 kmh NE 1.1 mph1.8 kmh 30.42 in1030.1 mb 0.00 in0.0 mm 0.00 in0.0 mm 0.00 in0.0 mm
05:41 AM 25.5°F-3.6°C 15.0°F-9.4°C 64% 0.2 mph NE0.3 kmh NE 1.1 mph1.8 kmh 30.41 in1029.8 mb 0.00 in0.0 mm 0.00 in0.0 mm 0.00 in0.0 mm
05:40 AM 25.5°F-3.6°C 15.0°F-9.4°C 64% 1.6 mph NE2.6 kmh NE 2.2 mph3.5 kmh 30.42 in1030.1 mb 0.00 in0.0 mm 0.00 in0.0 mm 0.00 in0.0 mm
05:39 AM 25.5°F-3.6°C 15.0°F-9.4°C 64% Calm Calm -- 30.41 in1029.8 mb 0.00 in0.0 mm 0.00 in0.0 mm 0.00 in0.0 mm
05:38 AM 25.3°F-3.7°C 14.9°F-9.5°C 64% 0.9 mph NE1.4 kmh NE 1.1 mph1.8 kmh 30.42 in1030.1 mb 0.00 in0.0 mm 0.00 in0.0 mm 0.00 in0.0 mm
05:37 AM 25.3°F-3.7°C 14.9°F-9.5°C 64% Calm Calm -- 30.43 in1030.5 mb 0.00 in0.0 mm 0.00 in0.0 mm 0.00 in0.0 mm
05:36 AM 25.3°F-3.7°C 14.9°F-9.5°C 64% 0.4 mph NE0.6 kmh NE 1.1 mph1.8 kmh 30.42 in1030.1 mb 0.00 in0.0 mm 0.00 in0.0 mm 0.00 in0.0 mm
05:35 AM 25.3°F-3.7°C 14.9°F-9.5°C 64% 0.7 mph NE1.1 kmh NE 1.1 mph1.8 kmh 30.42 in1030.1 mb 0.00 in0.0 mm 0.00 in0.0 mm 0.00 in0.0 mm
05:34 AM 25.3°F-3.7°C 14.9°F-9.5°C 64% 0.2 mph NE0.3 kmh NE 1.1 mph1.8 kmh 30.42 in1030.1 mb 0.00 in0.0 mm 0.00 in0.0 mm 0.00 in0.0 mm
05:33 AM 25.3°F-3.7°C 14.9°F-9.5°C 64% Calm Calm -- 30.42 in1030.1 mb 0.00 in0.0 mm 0.00 in0.0 mm 0.00 in0.0 mm
05:32 AM 25.3°F-3.7°C 14.9°F-9.5°C 64% Calm Calm -- 30.42 in1030.1 mb 0.00 in0.0 mm 0.00 in0.0 mm 0.00 in0.0 mm
05:31 AM 25.3°F-3.7°C 14.9°F-9.5°C 64% 0.2 mph NE0.3 kmh NE 1.1 mph1.8 kmh 30.42 in1030.1 mb 0.00 in0.0 mm 0.00 in0.0 mm 0.00 in0.0 mm
05:30 AM 25.3°F-3.7°C 14.9°F-9.5°C 64% 0.2 mph NE0.3 kmh NE 1.1 mph1.8 kmh 30.41 in1029.8 mb 0.00 in0.0 mm 0.00 in0.0 mm 0.00 in0.0 mm
05:29 AM 25.3°F-3.7°C 14.5°F-9.7°C 63% Calm Calm -- 30.43 in1030.5 mb 0.00 in0.0 mm 0.00 in0.0 mm 0.00 in0.0 mm
05:28 AM 25.3°F-3.7°C 14.9°F-9.5°C 64% 0.7 mph NE1.1 kmh NE 1.1 mph1.8 kmh 30.41 in1029.8 mb 0.00 in0.0 mm 0.00 in0.0 mm 0.00 in0.0 mm
05:27 AM 25.3°F-3.7°C 14.5°F-9.7°C 63% 0.7 mph NE1.1 kmh NE 1.1 mph1.8 kmh 30.42 in1030.1 mb 0.00 in0.0 mm 0.00 in0.0 mm 0.00 in0.0 mm
05:26 AM 25.3°F-3.7°C 14.5°F-9.7°C 63% 1.1 mph NE1.8 kmh NE 1.1 mph1.8 kmh 30.42 in1030.1 mb 0.00 in0.0 mm 0.00 in0.0 mm 0.00 in0.0 mm
05:25 AM 25.3°F-3.7°C 14.9°F-9.5°C 64% Calm Calm -- 30.42 in1030.1 mb 0.00 in0.0 mm 0.00 in0.0 mm 0.00 in0.0 mm
05:24 AM 25.2°F-3.8°C 14.4°F-9.8°C 63% Calm Calm -- 30.42 in1030.1 mb 0.00 in0.0 mm 0.00 in0.0 mm 0.00 in0.0 mm
05:23 AM 25.2°F-3.8°C 14.4°F-9.8°C 63% 0.4 mph NE0.6 kmh NE 1.1 mph1.8 kmh 30.42 in1030.1 mb 0.00 in0.0 mm 0.00 in0.0 mm 0.00 in0.0 mm
05:22 AM 25.2°F-3.8°C 14.8°F-9.6°C 64% 0.2 mph NE0.3 kmh NE 1.1 mph1.8 kmh 30.42 in1030.1 mb 0.00 in0.0 mm 0.00 in0.0 mm 0.00 in0.0 mm
05:21 AM 25.2°F-3.8°C 14.8°F-9.6°C 64% 0.2 mph NE0.3 kmh NE 1.1 mph1.8 kmh 30.42 in1030.1 mb 0.00 in0.0 mm 0.00 in0.0 mm 0.00 in0.0 mm
05:20 AM 25.0°F-3.9°C 14.6°F-9.7°C 64% 0.9 mph NE1.4 kmh NE 1.1 mph1.8 kmh 30.42 in1030.1 mb 0.00 in0.0 mm 0.00 in0.0 mm 0.00 in0.0 mm
05:19 AM 25.0°F-3.9°C 14.6°F-9.7°C 64% 0.2 mph ENE0.3 kmh ENE 1.1 mph1.8 kmh 30.42 in1030.1 mb 0.00 in0.0 mm 0.00 in0.0 mm 0.00 in0.0 mm
05:18 AM 25.0°F-3.9°C 14.6°F-9.7°C 64% 0.7 mph ENE1.1 kmh ENE 1.1 mph1.8 kmh 30.42 in1030.1 mb 0.00 in0.0 mm 0.00 in0.0 mm 0.00 in0.0 mm
05:17 AM 24.8°F-4.0°C 14.4°F-9.8°C 64% 2.0 mph ENE3.2 kmh ENE 3.4 mph5.5 kmh 30.42 in1030.1 mb 0.00 in0.0 mm 0.00 in0.0 mm 0.00 in0.0 mm
05:16 AM 24.8°F-4.0°C 14.4°F-9.8°C 64% 0.4 mph NNE0.6 kmh NNE 1.1 mph1.8 kmh 30.43 in1030.5 mb 0.00 in0.0 mm 0.00 in0.0 mm 0.00 in0.0 mm
05:15 AM 24.8°F-4.0°C 14.4°F-9.8°C 64% 0.2 mph NNE0.3 kmh NNE 1.1 mph1.8 kmh 30.42 in1030.1 mb 0.00 in0.0 mm 0.00 in0.0 mm 0.00 in0.0 mm
05:14 AM 24.8°F-4.0°C 14.7°F-9.6°C 65% Calm Calm -- 30.43 in1030.5 mb 0.00 in0.0 mm 0.00 in0.0 mm 0.00 in0.0 mm
05:13 AM 24.8°F-4.0°C 14.7°F-9.6°C 65% Calm Calm -- 30.42 in1030.1 mb 0.00 in0.0 mm 0.00 in0.0 mm 0.00 in0.0 mm
05:12 AM 24.8°F-4.0°C 14.4°F-9.8°C 64% Calm Calm -- 30.42 in1030.1 mb 0.00 in0.0 mm 0.00 in0.0 mm 0.00 in0.0 mm
05:11 AM 24.8°F-4.0°C 14.4°F-9.8°C 64% 0.9 mph NNE1.4 kmh NNE 1.1 mph1.8 kmh 30.42 in1030.1 mb 0.00 in0.0 mm 0.00 in0.0 mm 0.00 in0.0 mm
05:10 AM 24.6°F-4.1°C 14.2°F-9.9°C 64% 1.1 mph NNE1.8 kmh NNE 2.2 mph3.5 kmh 30.42 in1030.1 mb 0.00 in0.0 mm 0.00 in0.0 mm 0.00 in0.0 mm
05:09 AM 24.6°F-4.1°C 14.2°F-9.9°C 64% Calm Calm -- 30.41 in1029.8 mb 0.00 in0.0 mm 0.00 in0.0 mm 0.00 in0.0 mm
05:08 AM 24.6°F-4.1°C 14.5°F-9.7°C 65% Calm Calm -- 30.42 in1030.1 mb 0.00 in0.0 mm 0.00 in0.0 mm 0.00 in0.0 mm
05:07 AM 24.6°F-4.1°C 14.2°F-9.9°C 64% 0.9 mph NNE1.4 kmh NNE 1.1 mph1.8 kmh 30.42 in1030.1 mb 0.00 in0.0 mm 0.00 in0.0 mm 0.00 in0.0 mm
05:05 AM 24.6°F-4.1°C 14.2°F-9.9°C 64% Calm Calm -- 30.42 in1030.1 mb 0.00 in0.0 mm 0.00 in0.0 mm 0.00 in0.0 mm
05:04 AM 24.6°F-4.1°C 14.2°F-9.9°C 64% 0.2 mph NNE0.3 kmh NNE 1.1 mph1.8 kmh 30.42 in1030.1 mb 0.00 in0.0 mm 0.00 in0.0 mm 0.00 in0.0 mm
05:03 AM 24.6°F-4.1°C 14.2°F-9.9°C 64% 0.9 mph NNE1.4 kmh NNE 1.1 mph1.8 kmh 30.42 in1030.1 mb 0.00 in0.0 mm 0.00 in0.0 mm 0.00 in0.0 mm
05:02 AM 24.6°F-4.1°C 14.2°F-9.9°C 64% 0.9 mph NNE1.4 kmh NNE 1.1 mph1.8 kmh 30.42 in1030.1 mb 0.00 in0.0 mm 0.00 in0.0 mm 0.00 in0.0 mm
05:01 AM 24.6°F-4.1°C 14.2°F-9.9°C 64% 2.2 mph NNE3.5 kmh NNE 2.2 mph3.5 kmh 30.42 in1030.1 mb 0.00 in0.0 mm 0.00 in0.0 mm 0.00 in0.0 mm
05:00 AM 24.6°F-4.1°C 14.2°F-9.9°C 64% 0.9 mph NNE1.4 kmh NNE 1.1 mph1.8 kmh 30.42 in1030.1 mb 0.00 in0.0 mm 0.00 in0.0 mm 0.00 in0.0 mm
04:59 AM 24.6°F-4.1°C 14.2°F-9.9°C 64% 0.2 mph NNE0.3 kmh NNE 1.1 mph1.8 kmh 30.42 in1030.1 mb 0.00 in0.0 mm 0.00 in0.0 mm 0.00 in0.0 mm
04:58 AM 24.6°F-4.1°C 14.2°F-9.9°C 64% 0.2 mph NNE0.3 kmh NNE 1.1 mph1.8 kmh 30.41 in1029.8 mb 0.00 in0.0 mm 0.00 in0.0 mm 0.00 in0.0 mm
04:57 AM 24.4°F-4.2°C 14.0°F-10.0°C 64% 0.9 mph NNE1.4 kmh NNE 1.1 mph1.8 kmh 30.41 in1029.8 mb 0.00 in0.0 mm 0.00 in0.0 mm 0.00 in0.0 mm
04:56 AM 24.4°F-4.2°C 14.0°F-10.0°C 64% 0.2 mph NNE0.3 kmh NNE 1.1 mph1.8 kmh 30.42 in1030.1 mb 0.00 in0.0 mm 0.00 in0.0 mm 0.00 in0.0 mm
04:55 AM 24.4°F-4.2°C 14.3°F-9.8°C 65% Calm Calm -- 30.42 in1030.1 mb 0.00 in0.0 mm 0.00 in0.0 mm 0.00 in0.0 mm
04:54 AM 24.4°F-4.2°C 14.3°F-9.8°C 65% 0.2 mph NNE0.3 kmh NNE 1.1 mph1.8 kmh 30.42 in1030.1 mb 0.00 in0.0 mm 0.00 in0.0 mm 0.00 in0.0 mm
04:53 AM 24.4°F-4.2°C 14.0°F-10.0°C 64% 0.4 mph NNE0.6 kmh NNE 1.1 mph1.8 kmh 30.42 in1030.1 mb 0.00 in0.0 mm 0.00 in0.0 mm 0.00 in0.0 mm
04:52 AM 24.4°F-4.2°C 14.3°F-9.8°C 65% 0.2 mph NNE0.3 kmh NNE 1.1 mph1.8 kmh 30.42 in1030.1 mb 0.00 in0.0 mm 0.00 in0.0 mm 0.00 in0.0 mm
04:51 AM 24.4°F-4.2°C 14.3°F-9.8°C 65% 0.4 mph NNE0.6 kmh NNE 1.1 mph1.8 kmh 30.42 in1030.1 mb 0.00 in0.0 mm 0.00 in0.0 mm 0.00 in0.0 mm
04:50 AM 24.6°F-4.1°C 14.2°F-9.9°C 64% Calm Calm -- 30.42 in1030.1 mb 0.00 in0.0 mm 0.00 in0.0 mm 0.00 in0.0 mm
04:49 AM 24.6°F-4.1°C 14.2°F-9.9°C 64% Calm Calm -- 30.41 in1029.8 mb 0.00 in0.0 mm 0.00 in0.0 mm 0.00 in0.0 mm
04:48 AM 24.8°F-4.0°C 14.4°F-9.8°C 64% Calm Calm -- 30.42 in1030.1 mb 0.00 in0.0 mm 0.00 in0.0 mm 0.00 in0.0 mm
04:47 AM 24.8°F-4.0°C 14.4°F-9.8°C 64% Calm Calm -- 30.41 in1029.8 mb 0.00 in0.0 mm 0.00 in0.0 mm 0.00 in0.0 mm
04:46 AM 24.8°F-4.0°C 14.4°F-9.8°C 64% Calm Calm -- 30.42 in1030.1 mb 0.00 in0.0 mm 0.00 in0.0 mm 0.00 in0.0 mm
04:45 AM 24.8°F-4.0°C 14.0°F-10.0°C 63% 0.7 mph NNE1.1 kmh NNE 1.1 mph1.8 kmh 30.42 in1030.1 mb 0.00 in0.0 mm 0.00 in0.0 mm 0.00 in0.0 mm
04:44 AM 24.8°F-4.0°C 14.0°F-10.0°C 63% 1.1 mph NNE1.8 kmh NNE 1.1 mph1.8 kmh 30.42 in1030.1 mb 0.00 in0.0 mm 0.00 in0.0 mm 0.00 in0.0 mm
04:43 AM 24.8°F-4.0°C 14.4°F-9.8°C 64% 1.8 mph NNE2.9 kmh NNE 2.2 mph3.5 kmh 30.42 in1030.1 mb 0.00 in0.0 mm 0.00 in0.0 mm 0.00 in0.0 mm
04:42 AM 24.8°F-4.0°C 14.4°F-9.8°C 64% Calm Calm -- 30.43 in1030.5 mb 0.00 in0.0 mm 0.00 in0.0 mm 0.00 in0.0 mm
04:41 AM 25.0°F-3.9°C 14.6°F-9.7°C 64% 0.2 mph NNE0.3 kmh NNE 1.1 mph1.8 kmh 30.42 in1030.1 mb 0.00 in0.0 mm 0.00 in0.0 mm 0.00 in0.0 mm
04:40 AM 25.0°F-3.9°C 14.6°F-9.7°C 64% Calm Calm -- 30.43 in1030.5 mb 0.00 in0.0 mm 0.00 in0.0 mm 0.00 in0.0 mm
04:39 AM 25.0°F-3.9°C 14.6°F-9.7°C 64% Calm Calm -- 30.43 in1030.5 mb 0.00 in0.0 mm 0.00 in0.0 mm 0.00 in0.0 mm
04:38 AM 25.0°F-3.9°C 14.6°F-9.7°C 64% Calm Calm -- 30.43 in1030.5 mb 0.00 in0.0 mm 0.00 in0.0 mm 0.00 in0.0 mm
04:37 AM 25.2°F-3.8°C 14.8°F-9.6°C 64% Calm Calm -- 30.43 in1030.5 mb 0.00 in0.0 mm 0.00 in0.0 mm 0.00 in0.0 mm
04:36 AM 25.2°F-3.8°C 15.1°F-9.4°C 65% Calm Calm -- 30.43 in1030.5 mb 0.00 in0.0 mm 0.00 in0.0 mm 0.00 in0.0 mm
04:35 AM 25.3°F-3.7°C 14.9°F-9.5°C 64% Calm Calm -- 30.43 in1030.5 mb 0.00 in0.0 mm 0.00 in0.0 mm 0.00 in0.0 mm
04:34 AM 25.3°F-3.7°C 14.9°F-9.5°C 64% Calm Calm -- 30.43 in1030.5 mb 0.00 in0.0 mm 0.00 in0.0 mm 0.00 in0.0 mm
04:33 AM 25.3°F-3.7°C 14.5°F-9.7°C 63% Calm Calm -- 30.43 in1030.5 mb 0.00 in0.0 mm 0.00 in0.0 mm 0.00 in0.0 mm
04:32 AM 25.3°F-3.7°C 14.5°F-9.7°C 63% Calm Calm -- 30.43 in1030.5 mb 0.00 in0.0 mm 0.00 in0.0 mm 0.00 in0.0 mm
04:31 AM 25.2°F-3.8°C 14.4°F-9.8°C 63% Calm Calm -- 30.43 in1030.5 mb 0.00 in0.0 mm 0.00 in0.0 mm 0.00 in0.0 mm
04:30 AM 25.2°F-3.8°C 14.4°F-9.8°C 63% Calm Calm -- 30.43 in1030.5 mb 0.00 in0.0 mm 0.00 in0.0 mm 0.00 in0.0 mm
04:29 AM 25.2°F-3.8°C 14.4°F-9.8°C 63% Calm Calm -- 30.43 in1030.5 mb 0.00 in0.0 mm 0.00 in0.0 mm 0.00 in0.0 mm
04:28 AM 25.2°F-3.8°C 14.4°F-9.8°C 63% Calm Calm -- 30.43 in1030.5 mb 0.00 in0.0 mm 0.00 in0.0 mm 0.00 in0.0 mm
04:27 AM 25.2°F-3.8°C 14.4°F-9.8°C 63% Calm Calm -- 30.43 in1030.5 mb 0.00 in0.0 mm 0.00 in0.0 mm 0.00 in0.0 mm
04:26 AM 25.2°F-3.8°C 14.8°F-9.6°C 64% Calm Calm -- 30.43 in1030.5 mb 0.00 in0.0 mm 0.00 in0.0 mm 0.00 in0.0 mm
04:25 AM 25.2°F-3.8°C 14.8°F-9.6°C 64% Calm Calm -- 30.43 in1030.5 mb 0.00 in0.0 mm 0.00 in0.0 mm 0.00 in0.0 mm
04:24 AM 25.2°F-3.8°C 14.8°F-9.6°C 64% 0.2 mph NNE0.3 kmh NNE 1.1 mph1.8 kmh 30.43 in1030.5 mb 0.00 in0.0 mm 0.00 in0.0 mm 0.00 in0.0 mm
04:23 AM 25.0°F-3.9°C 14.6°F-9.7°C 64% 0.4 mph NE0.6 kmh NE 1.1 mph1.8 kmh 30.42 in1030.1 mb 0.00 in0.0 mm 0.00 in0.0 mm 0.00 in0.0 mm
04:22 AM 25.0°F-3.9°C 14.6°F-9.7°C 64% 0.9 mph NE1.4 kmh NE 1.1 mph1.8 kmh 30.42 in1030.1 mb 0.00 in0.0 mm 0.00 in0.0 mm 0.00 in0.0 mm
04:21 AM 25.0°F-3.9°C 14.9°F-9.5°C 65% 0.7 mph NNE1.1 kmh NNE 1.1 mph1.8 kmh 30.42 in1030.1 mb 0.00 in0.0 mm 0.00 in0.0 mm 0.00 in0.0 mm
04:20 AM 24.8°F-4.0°C 14.7°F-9.6°C 65% 0.2 mph NNE0.3 kmh NNE 1.1 mph1.8 kmh 30.42 in1030.1 mb 0.00 in0.0 mm 0.00 in0.0 mm 0.00 in0.0 mm
04:19 AM 24.8°F-4.0°C 14.7°F-9.6°C 65% 0.9 mph NNE1.4 kmh NNE 1.1 mph1.8 kmh 30.42 in1030.1 mb 0.00 in0.0 mm 0.00 in0.0 mm 0.00 in0.0 mm
04:18 AM 24.6°F-4.1°C 14.5°F-9.7°C 65% 0.9 mph NNE1.4 kmh NNE 1.1 mph1.8 kmh 30.41 in1029.8 mb 0.00 in0.0 mm 0.00 in0.0 mm 0.00 in0.0 mm
04:17 AM 24.6°F-4.1°C 14.9°F-9.5°C 66% 0.7 mph NNE1.1 kmh NNE 1.1 mph1.8 kmh 30.42 in1030.1 mb 0.00 in0.0 mm 0.00 in0.0 mm 0.00 in0.0 mm
04:16 AM 24.4°F-4.2°C 14.7°F-9.6°C 66% 0.9 mph NNE1.4 kmh NNE 1.1 mph1.8 kmh 30.41 in1029.8 mb 0.00 in0.0 mm 0.00 in0.0 mm 0.00 in0.0 mm
04:15 AM 24.3°F-4.3°C 14.9°F-9.5°C 67% 0.2 mph NNE0.3 kmh NNE 1.1 mph1.8 kmh 30.42 in1030.1 mb 0.00 in0.0 mm 0.00 in0.0 mm 0.00 in0.0 mm
04:14 AM 24.3°F-4.3°C 15.3°F-9.3°C 68% 0.4 mph NE0.6 kmh NE 1.1 mph1.8 kmh 30.42 in1030.1 mb 0.00 in0.0 mm 0.00 in0.0 mm 0.00 in0.0 mm
04:13 AM 24.3°F-4.3°C 15.3°F-9.3°C 68% Calm Calm -- 30.43 in1030.5 mb 0.00 in0.0 mm 0.00 in0.0 mm 0.00 in0.0 mm
04:12 AM 24.3°F-4.3°C 15.3°F-9.3°C 68% Calm Calm -- 30.42 in1030.1 mb 0.00 in0.0 mm 0.00 in0.0 mm 0.00 in0.0 mm
04:11 AM 24.3°F-4.3°C 15.6°F-9.1°C 69% 0.2 mph NNE0.3 kmh NNE 1.1 mph1.8 kmh 30.42 in1030.1 mb 0.00 in0.0 mm 0.00 in0.0 mm 0.00 in0.0 mm
04:10 AM 24.1°F-4.4°C 15.4°F-9.2°C 69% Calm Calm -- 30.42 in1030.1 mb 0.00 in0.0 mm 0.00 in0.0 mm 0.00 in0.0 mm
04:09 AM 23.9°F-4.5°C 15.2°F-9.3°C 69% Calm Calm -- 30.42 in1030.1 mb 0.00 in0.0 mm 0.00 in0.0 mm 0.00 in0.0 mm
04:08 AM 23.9°F-4.5°C 15.2°F-9.3°C 69% Calm Calm -- 30.42 in1030.1 mb 0.00 in0.0 mm 0.00 in0.0 mm 0.00 in0.0 mm
04:07 AM 23.7°F-4.6°C 15.4°F-9.2°C 70% Calm Calm -- 30.42 in1030.1 mb 0.00 in0.0 mm 0.00 in0.0 mm 0.00 in0.0 mm
04:06 AM 23.7°F-4.6°C 15.4°F-9.2°C 70% 0.2 mph NNE0.3 kmh NNE 1.1 mph1.8 kmh 30.42 in1030.1 mb 0.00 in0.0 mm 0.00 in0.0 mm 0.00 in0.0 mm
04:05 AM 23.5°F-4.7°C 15.5°F-9.2°C 71% Calm Calm -- 30.42 in1030.1 mb 0.00 in0.0 mm 0.00 in0.0 mm 0.00 in0.0 mm
04:04 AM 23.5°F-4.7°C 15.5°F-9.2°C 71% Calm Calm -- 30.42 in1030.1 mb 0.00 in0.0 mm 0.00 in0.0 mm 0.00 in0.0 mm
04:03 AM 23.5°F-4.7°C 15.5°F-9.2°C 71% Calm Calm -- 30.43 in1030.5 mb 0.00 in0.0 mm 0.00 in0.0 mm 0.00 in0.0 mm
04:02 AM 23.5°F-4.7°C 15.5°F-9.2°C 71% Calm Calm -- 30.43 in1030.5 mb 0.00 in0.0 mm 0.00 in0.0 mm 0.00 in0.0 mm
04:01 AM 23.5°F-4.7°C 15.5°F-9.2°C 71% Calm Calm -- 30.43 in1030.5 mb 0.00 in0.0 mm 0.00 in0.0 mm 0.00 in0.0 mm
04:00 AM 23.5°F-4.7°C 15.2°F-9.3°C 70% Calm Calm -- 30.43 in1030.5 mb 0.00 in0.0 mm 0.00 in0.0 mm 0.00 in0.0 mm
03:59 AM 23.5°F-4.7°C 15.5°F-9.2°C 71% Calm Calm -- 30.43 in1030.5 mb 0.00 in0.0 mm 0.00 in0.0 mm 0.00 in0.0 mm
03:58 AM 23.5°F-4.7°C 15.2°F-9.3°C 70% Calm Calm -- 30.44 in1030.8 mb 0.00 in0.0 mm 0.00 in0.0 mm 0.00 in0.0 mm
03:57 AM 23.7°F-4.6°C 15.4°F-9.2°C 70% Calm Calm -- 30.43 in1030.5 mb 0.00 in0.0 mm 0.00 in0.0 mm 0.00 in0.0 mm
03:56 AM 23.7°F-4.6°C 15.4°F-9.2°C 70% Calm Calm -- 30.43 in1030.5 mb 0.00 in0.0 mm 0.00 in0.0 mm 0.00 in0.0 mm
03:55 AM 23.7°F-4.6°C 15.4°F-9.2°C 70% Calm Calm -- 30.44 in1030.8 mb 0.00 in0.0 mm 0.00 in0.0 mm 0.00 in0.0 mm
03:54 AM 23.7°F-4.6°C 15.4°F-9.2°C 70% Calm Calm -- 30.43 in1030.5 mb 0.00 in0.0 mm 0.00 in0.0 mm 0.00 in0.0 mm
03:53 AM 23.7°F-4.6°C 15.0°F-9.4°C 69% Calm Calm -- 30.44 in1030.8 mb 0.00 in0.0 mm 0.00 in0.0 mm 0.00 in0.0 mm
03:52 AM 23.9°F-4.5°C 15.2°F-9.3°C 69% Calm Calm -- 30.44 in1030.8 mb 0.00 in0.0 mm 0.00 in0.0 mm 0.00 in0.0 mm
03:51 AM 23.9°F-4.5°C 15.2°F-9.3°C 69% Calm Calm -- 30.44 in1030.8 mb 0.00 in0.0 mm 0.00 in0.0 mm 0.00 in0.0 mm
03:50 AM 23.9°F-4.5°C 15.2°F-9.3°C 69% Calm Calm -- 30.43 in1030.5 mb 0.00 in0.0 mm 0.00 in0.0 mm 0.00 in0.0 mm
03:49 AM 24.1°F-4.4°C 15.4°F-9.2°C 69% Calm Calm -- 30.43 in1030.5 mb 0.00 in0.0 mm 0.00 in0.0 mm 0.00 in0.0 mm
03:48 AM 24.1°F-4.4°C 15.4°F-9.2°C 69% Calm Calm -- 30.43 in1030.5 mb 0.00 in0.0 mm 0.00 in0.0 mm 0.00 in0.0 mm
03:47 AM 24.3°F-4.3°C 15.6°F-9.1°C 69% Calm Calm -- 30.43 in1030.5 mb 0.00 in0.0 mm 0.00 in0.0 mm 0.00 in0.0 mm
03:46 AM 24.3°F-4.3°C 15.6°F-9.1°C 69% Calm Calm -- 30.43 in1030.5 mb 0.00 in0.0 mm 0.00 in0.0 mm 0.00 in0.0 mm
03:45 AM 24.3°F-4.3°C 15.6°F-9.1°C 69% Calm Calm -- 30.43 in1030.5 mb 0.00 in0.0 mm 0.00 in0.0 mm 0.00 in0.0 mm
03:44 AM 24.3°F-4.3°C 15.6°F-9.1°C 69% Calm Calm -- 30.42 in1030.1 mb 0.00 in0.0 mm 0.00 in0.0 mm 0.00 in0.0 mm
03:43 AM 24.3°F-4.3°C 15.3°F-9.3°C 68% Calm Calm -- 30.42 in1030.1 mb 0.00 in0.0 mm 0.00 in0.0 mm 0.00 in0.0 mm
03:42 AM 24.3°F-4.3°C 15.3°F-9.3°C 68% Calm Calm -- 30.43 in1030.5 mb 0.00 in0.0 mm 0.00 in0.0 mm 0.00 in0.0 mm
03:41 AM 24.1°F-4.4°C 15.4°F-9.2°C 69% 0.4 mph NNE0.6 kmh NNE 1.1 mph1.8 kmh 30.43 in1030.5 mb 0.00 in0.0 mm 0.00 in0.0 mm 0.00 in0.0 mm
03:40 AM 24.1°F-4.4°C 15.4°F-9.2°C 69% Calm Calm -- 30.43 in1030.5 mb 0.00 in0.0 mm 0.00 in0.0 mm 0.00 in0.0 mm
03:39 AM 24.1°F-4.4°C 15.4°F-9.2°C 69% Calm Calm -- 30.43 in1030.5 mb 0.00 in0.0 mm 0.00 in0.0 mm 0.00 in0.0 mm
03:38 AM 24.1°F-4.4°C 15.8°F-9.0°C 70% 1.8 mph NNE2.9 kmh NNE 2.2 mph3.5 kmh 30.43 in1030.5 mb 0.00 in0.0 mm 0.00 in0.0 mm 0.00 in0.0 mm
03:37 AM 24.1°F-4.4°C 15.8°F-9.0°C 70% Calm Calm -- 30.43 in1030.5 mb 0.00 in0.0 mm 0.00 in0.0 mm 0.00 in0.0 mm
03:36 AM 24.1°F-4.4°C 15.8°F-9.0°C 70% Calm Calm -- 30.43 in1030.5 mb 0.00 in0.0 mm 0.00 in0.0 mm 0.00 in0.0 mm
03:35 AM 24.1°F-4.4°C 15.8°F-9.0°C 70% Calm Calm -- 30.43 in1030.5 mb 0.00 in0.0 mm 0.00 in0.0 mm 0.00 in0.0 mm
03:34 AM 24.1°F-4.4°C 15.8°F-9.0°C 70% Calm Calm -- 30.43 in1030.5 mb 0.00 in0.0 mm 0.00 in0.0 mm 0.00 in0.0 mm
03:33 AM 24.1°F-4.4°C 15.8°F-9.0°C 70% Calm Calm -- 30.43 in1030.5 mb 0.00 in0.0 mm 0.00 in0.0 mm 0.00 in0.0 mm
03:32 AM 24.1°F-4.4°C 15.4°F-9.2°C 69% Calm Calm -- 30.43 in1030.5 mb 0.00 in0.0 mm 0.00 in0.0 mm 0.00 in0.0 mm
03:31 AM 24.1°F-4.4°C 15.8°F-9.0°C 70% Calm Calm -- 30.44 in1030.8 mb 0.00 in0.0 mm 0.00 in0.0 mm 0.00 in0.0 mm
03:30 AM 23.9°F-4.5°C 15.6°F-9.1°C 70% Calm Calm -- 30.43 in1030.5 mb 0.00 in0.0 mm 0.00 in0.0 mm 0.00 in0.0 mm
03:29 AM 23.9°F-4.5°C 15.6°F-9.1°C 70% Calm Calm -- 30.42 in1030.1 mb 0.00 in0.0 mm 0.00 in0.0 mm 0.00 in0.0 mm
03:28 AM 23.9°F-4.5°C 15.6°F-9.1°C 70% 0.2 mph N0.3 kmh N 1.1 mph1.8 kmh 30.42 in1030.1 mb 0.00 in0.0 mm 0.00 in0.0 mm 0.00 in0.0 mm
03:27 AM 23.9°F-4.5°C 15.6°F-9.1°C 70% 0.2 mph N0.3 kmh N 1.1 mph1.8 kmh 30.42 in1030.1 mb 0.00 in0.0 mm 0.00 in0.0 mm 0.00 in0.0 mm
03:26 AM 23.9°F-4.5°C 15.6°F-9.1°C 70% Calm Calm -- 30.42 in1030.1 mb 0.00 in0.0 mm 0.00 in0.0 mm 0.00 in0.0 mm
03:25 AM 23.7°F-4.6°C 15.4°F-9.2°C 70% Calm Calm -- 30.42 in1030.1 mb 0.00 in0.0 mm 0.00 in0.0 mm 0.00 in0.0 mm
03:24 AM 23.7°F-4.6°C 15.4°F-9.2°C 70% 0.7 mph N1.1 kmh N 1.1 mph1.8 kmh 30.43 in1030.5 mb 0.00 in0.0 mm 0.00 in0.0 mm 0.00 in0.0 mm
03:23 AM 23.7°F-4.6°C 15.4°F-9.2°C 70% 0.7 mph N1.1 kmh N 1.1 mph1.8 kmh 30.42 in1030.1 mb 0.00 in0.0 mm 0.00 in0.0 mm 0.00 in0.0 mm
03:22 AM 23.7°F-4.6°C 15.4°F-9.2°C 70% 1.1 mph N1.8 kmh N 1.1 mph1.8 kmh 30.43 in1030.5 mb 0.00 in0.0 mm 0.00 in0.0 mm 0.00 in0.0 mm
03:21 AM 23.7°F-4.6°C 15.7°F-9.1°C 71% Calm Calm -- 30.43 in1030.5 mb 0.00 in0.0 mm 0.00 in0.0 mm 0.00 in0.0 mm
03:20 AM 23.7°F-4.6°C 15.7°F-9.1°C 71% Calm Calm -- 30.43 in1030.5 mb 0.00 in0.0 mm 0.00 in0.0 mm 0.00 in0.0 mm
03:19 AM 23.7°F-4.6°C 15.7°F-9.1°C 71% Calm Calm -- 30.43 in1030.5 mb 0.00 in0.0 mm 0.00 in0.0 mm 0.00 in0.0 mm
03:18 AM 23.7°F-4.6°C 15.7°F-9.1°C 71% Calm Calm -- 30.42 in1030.1 mb 0.00 in0.0 mm 0.00 in0.0 mm 0.00 in0.0 mm
03:17 AM 23.7°F-4.6°C 15.7°F-9.1°C 71% Calm Calm -- 30.43 in1030.5 mb 0.00 in0.0 mm 0.00 in0.0 mm 0.00 in0.0 mm
03:16 AM 23.7°F-4.6°C 15.7°F-9.1°C 71% Calm Calm -- 30.43 in1030.5 mb 0.00 in0.0 mm 0.00 in0.0 mm 0.00 in0.0 mm
03:15 AM 23.7°F-4.6°C 15.7°F-9.1°C 71% 0.2 mph N0.3 kmh N 1.1 mph1.8 kmh 30.42 in1030.1 mb 0.00 in0.0 mm 0.00 in0.0 mm 0.00 in0.0 mm
03:14 AM 23.7°F-4.6°C 15.7°F-9.1°C 71% Calm Calm -- 30.43 in1030.5 mb 0.00 in0.0 mm 0.00 in0.0 mm 0.00 in0.0 mm
03:13 AM 23.7°F-4.6°C 15.7°F-9.1°C 71% Calm Calm -- 30.43 in1030.5 mb 0.00 in0.0 mm 0.00 in0.0 mm 0.00 in0.0 mm
03:12 AM 23.7°F-4.6°C 15.7°F-9.1°C 71% 0.2 mph N0.3 kmh N 1.1 mph1.8 kmh 30.42 in1030.1 mb 0.00 in0.0 mm 0.00 in0.0 mm 0.00 in0.0 mm
03:11 AM 23.7°F-4.6°C 15.7°F-9.1°C 71% 0.2 mph N0.3 kmh N 1.1 mph1.8 kmh 30.43 in1030.5 mb 0.00 in0.0 mm 0.00 in0.0 mm 0.00 in0.0 mm
03:10 AM 23.7°F-4.6°C 15.7°F-9.1°C 71% Calm Calm -- 30.42 in1030.1 mb 0.00 in0.0 mm 0.00 in0.0 mm 0.00 in0.0 mm
03:09 AM 23.7°F-4.6°C 15.7°F-9.1°C 71% Calm Calm -- 30.43 in1030.5 mb 0.00 in0.0 mm 0.00 in0.0 mm 0.00 in0.0 mm
03:08 AM 23.7°F-4.6°C 15.7°F-9.1°C 71% Calm Calm -- 30.43 in1030.5 mb 0.00 in0.0 mm 0.00 in0.0 mm 0.00 in0.0 mm
03:07 AM 23.7°F-4.6°C 15.7°F-9.1°C 71% 0.4 mph N0.6 kmh N 1.1 mph1.8 kmh 30.43 in1030.5 mb 0.00 in0.0 mm 0.00 in0.0 mm 0.00 in0.0 mm
03:06 AM 23.5°F-4.7°C 15.5°F-9.2°C 71% Calm Calm -- 30.43 in1030.5 mb 0.00 in0.0 mm 0.00 in0.0 mm 0.00 in0.0 mm
03:05 AM 23.5°F-4.7°C 15.5°F-9.2°C 71% 0.2 mph N0.3 kmh N 1.1 mph1.8 kmh 30.43 in1030.5 mb 0.00 in0.0 mm 0.00 in0.0 mm 0.00 in0.0 mm
03:04 AM 23.5°F-4.7°C 15.5°F-9.2°C 71% Calm Calm -- 30.43 in1030.5 mb 0.00 in0.0 mm 0.00 in0.0 mm 0.00 in0.0 mm
03:03 AM 23.5°F-4.7°C 15.5°F-9.2°C 71% Calm Calm -- 30.43 in1030.5 mb 0.00 in0.0 mm 0.00 in0.0 mm 0.00 in0.0 mm
03:02 AM 23.5°F-4.7°C 15.5°F-9.2°C 71% Calm Calm -- 30.43 in1030.5 mb 0.00 in0.0 mm 0.00 in0.0 mm 0.00 in0.0 mm
03:01 AM 23.7°F-4.6°C 15.7°F-9.1°C 71% Calm Calm -- 30.43 in1030.5 mb 0.00 in0.0 mm 0.00 in0.0 mm 0.00 in0.0 mm
03:00 AM 23.7°F-4.6°C 15.7°F-9.1°C 71% Calm Calm -- 30.43 in1030.5 mb 0.00 in0.0 mm 0.00 in0.0 mm 0.00 in0.0 mm
02:59 AM 23.7°F-4.6°C 15.7°F-9.1°C 71% Calm Calm -- 30.44 in1030.8 mb 0.00 in0.0 mm 0.00 in0.0 mm 0.00 in0.0 mm
02:58 AM 23.7°F-4.6°C 15.7°F-9.1°C 71% Calm Calm -- 30.43 in1030.5 mb 0.00 in0.0 mm 0.00 in0.0 mm 0.00 in0.0 mm
02:57 AM 23.7°F-4.6°C 15.4°F-9.2°C 70% Calm Calm -- 30.44 in1030.8 mb 0.00 in0.0 mm 0.00 in0.0 mm 0.00 in0.0 mm
02:56 AM 23.9°F-4.5°C 15.6°F-9.1°C 70% Calm Calm -- 30.43 in1030.5 mb 0.00 in0.0 mm 0.00 in0.0 mm 0.00 in0.0 mm
02:55 AM 23.9°F-4.5°C 15.6°F-9.1°C 70% Calm Calm -- 30.43 in1030.5 mb 0.00 in0.0 mm 0.00 in0.0 mm 0.00 in0.0 mm
02:54 AM 23.9°F-4.5°C 15.6°F-9.1°C 70% Calm Calm -- 30.43 in1030.5 mb 0.00 in0.0 mm 0.00 in0.0 mm 0.00 in0.0 mm
02:53 AM 24.1°F-4.4°C 15.8°F-9.0°C 70% Calm Calm -- 30.43 in1030.5 mb 0.00 in0.0 mm 0.00 in0.0 mm 0.00 in0.0 mm
02:52 AM 24.1°F-4.4°C 15.8°F-9.0°C 70% Calm Calm -- 30.44 in1030.8 mb 0.00 in0.0 mm 0.00 in0.0 mm 0.00 in0.0 mm
02:51 AM 24.3°F-4.3°C 15.9°F-8.9°C 70% Calm Calm -- 30.44 in1030.8 mb 0.00 in0.0 mm 0.00 in0.0 mm 0.00 in0.0 mm
02:50 AM 24.3°F-4.3°C 15.9°F-8.9°C 70% Calm Calm -- 30.43 in1030.5 mb 0.00 in0.0 mm 0.00 in0.0 mm 0.00 in0.0 mm
02:49 AM 24.3°F-4.3°C 15.9°F-8.9°C 70% Calm Calm -- 30.43 in1030.5 mb 0.00 in0.0 mm 0.00 in0.0 mm 0.00 in0.0 mm
02:48 AM 24.4°F-4.2°C 15.7°F-9.1°C 69% Calm Calm -- 30.42 in1030.1 mb 0.00 in0.0 mm 0.00 in0.0 mm 0.00 in0.0 mm
02:47 AM 24.4°F-4.2°C 15.7°F-9.1°C 69% Calm Calm -- 30.43 in1030.5 mb 0.00 in0.0 mm 0.00 in0.0 mm 0.00 in0.0 mm
02:46 AM 24.4°F-4.2°C 15.7°F-9.1°C 69% Calm Calm -- 30.43 in1030.5 mb 0.00 in0.0 mm 0.00 in0.0 mm 0.00 in0.0 mm
02:45 AM 24.3°F-4.3°C 15.6°F-9.1°C 69% 0.4 mph N0.6 kmh N 1.1 mph1.8 kmh 30.43 in1030.5 mb 0.00 in0.0 mm 0.00 in0.0 mm 0.00 in0.0 mm
02:44 AM 24.3°F-4.3°C 15.6°F-9.1°C 69% Calm Calm -- 30.44 in1030.8 mb 0.00 in0.0 mm 0.00 in0.0 mm 0.00 in0.0 mm
02:43 AM 24.3°F-4.3°C 15.6°F-9.1°C 69% Calm Calm -- 30.44 in1030.8 mb 0.00 in0.0 mm 0.00 in0.0 mm 0.00 in0.0 mm
02:42 AM 24.1°F-4.4°C 15.4°F-9.2°C 69% 0.2 mph N0.3 kmh N 1.1 mph1.8 kmh 30.44 in1030.8 mb 0.00 in0.0 mm 0.00 in0.0 mm 0.00 in0.0 mm
02:41 AM 23.9°F-4.5°C 15.6°F-9.1°C 70% 0.9 mph N1.4 kmh N 1.1 mph1.8 kmh 30.44 in1030.8 mb 0.00 in0.0 mm 0.00 in0.0 mm 0.00 in0.0 mm
02:40 AM 23.7°F-4.6°C 15.4°F-9.2°C 70% 0.9 mph N1.4 kmh N 1.1 mph1.8 kmh 30.44 in1030.8 mb 0.00 in0.0 mm 0.00 in0.0 mm 0.00 in0.0 mm
02:39 AM 23.5°F-4.7°C 15.5°F-9.2°C 71% 0.2 mph N0.3 kmh N 1.1 mph1.8 kmh 30.44 in1030.8 mb 0.00 in0.0 mm 0.00 in0.0 mm 0.00 in0.0 mm
02:38 AM 23.4°F-4.8°C 15.7°F-9.1°C 72% 0.7 mph N1.1 kmh N 1.1 mph1.8 kmh 30.44 in1030.8 mb 0.00 in0.0 mm 0.00 in0.0 mm 0.00 in0.0 mm
02:37 AM 23.4°F-4.8°C 15.7°F-9.1°C 72% Calm Calm -- 30.43 in1030.5 mb 0.00 in0.0 mm 0.00 in0.0 mm 0.00 in0.0 mm
02:36 AM 23.2°F-4.9°C 15.9°F-8.9°C 73% Calm Calm -- 30.44 in1030.8 mb 0.00 in0.0 mm 0.00 in0.0 mm 0.00 in0.0 mm
02:35 AM 23.2°F-4.9°C 16.2°F-8.8°C 74% Calm Calm -- 30.44 in1030.8 mb 0.00 in0.0 mm 0.00 in0.0 mm 0.00 in0.0 mm
02:34 AM 23.2°F-4.9°C 16.2°F-8.8°C 74% Calm Calm -- 30.45 in1031.2 mb 0.00 in0.0 mm 0.00 in0.0 mm 0.00 in0.0 mm
02:33 AM 23.2°F-4.9°C 16.2°F-8.8°C 74% Calm Calm -- 30.45 in1031.2 mb 0.00 in0.0 mm 0.00 in0.0 mm 0.00 in0.0 mm
02:32 AM 23.2°F-4.9°C 16.2°F-8.8°C 74% Calm Calm -- 30.44 in1030.8 mb 0.00 in0.0 mm 0.00 in0.0 mm 0.00 in0.0 mm
02:31 AM 23.2°F-4.9°C 16.2°F-8.8°C 74% Calm Calm -- 30.45 in1031.2 mb 0.00 in0.0 mm 0.00 in0.0 mm 0.00 in0.0 mm
02:30 AM 23.2°F-4.9°C 16.2°F-8.8°C 74% Calm Calm -- 30.45 in1031.2 mb 0.00 in0.0 mm 0.00 in0.0 mm 0.00 in0.0 mm
02:29 AM 23.2°F-4.9°C 16.2°F-8.8°C 74% Calm Calm -- 30.45 in1031.2 mb 0.00 in0.0 mm 0.00 in0.0 mm 0.00 in0.0 mm
02:28 AM 23.2°F-4.9°C 16.2°F-8.8°C 74% Calm Calm -- 30.45 in1031.2 mb 0.00 in0.0 mm 0.00 in0.0 mm 0.00 in0.0 mm
02:27 AM 23.4°F-4.8°C 16.4°F-8.7°C 74% Calm Calm -- 30.45 in1031.2 mb 0.00 in0.0 mm 0.00 in0.0 mm 0.00 in0.0 mm
02:26 AM 23.4°F-4.8°C 16.4°F-8.7°C 74% Calm Calm -- 30.45 in1031.2 mb 0.00 in0.0 mm 0.00 in0.0 mm 0.00 in0.0 mm
02:25 AM 23.4°F-4.8°C 16.7°F-8.5°C 75% Calm Calm -- 30.45 in1031.2 mb 0.00 in0.0 mm 0.00 in0.0 mm 0.00 in0.0 mm
02:24 AM 23.2°F-4.9°C 16.5°F-8.6°C 75% Calm Calm -- 30.44 in1030.8 mb 0.00 in0.0 mm 0.00 in0.0 mm 0.00 in0.0 mm
02:23 AM 23.2°F-4.9°C 16.5°F-8.6°C 75% Calm Calm -- 30.44 in1030.8 mb 0.00 in0.0 mm 0.00 in0.0 mm 0.00 in0.0 mm
02:22 AM 23.0°F-5.0°C 16.3°F-8.7°C 75% Calm Calm -- 30.44 in1030.8 mb 0.00 in0.0 mm 0.00 in0.0 mm 0.00 in0.0 mm
02:21 AM 22.8°F-5.1°C 16.4°F-8.7°C 76% Calm Calm -- 30.44 in1030.8 mb 0.00 in0.0 mm 0.00 in0.0 mm 0.00 in0.0 mm
02:20 AM 22.6°F-5.2°C 16.2°F-8.8°C 76% Calm Calm -- 30.44 in1030.8 mb 0.00 in0.0 mm 0.00 in0.0 mm 0.00 in0.0 mm
02:19 AM 22.5°F-5.3°C 16.7°F-8.5°C 78% Calm Calm -- 30.44 in1030.8 mb 0.00 in0.0 mm 0.00 in0.0 mm 0.00 in0.0 mm
02:18 AM 22.5°F-5.3°C 17.0°F-8.3°C 79% Calm Calm -- 30.44 in1030.8 mb 0.00 in0.0 mm 0.00 in0.0 mm 0.00 in0.0 mm
02:17 AM 22.5°F-5.3°C 17.3°F-8.2°C 80% Calm Calm -- 30.45 in1031.2 mb 0.00 in0.0 mm 0.00 in0.0 mm 0.00 in0.0 mm
02:16 AM 22.5°F-5.3°C 17.3°F-8.2°C 80% Calm Calm -- 30.44 in1030.8 mb 0.00 in0.0 mm 0.00 in0.0 mm 0.00 in0.0 mm
02:15 AM 22.5°F-5.3°C 17.3°F-8.2°C 80% Calm Calm -- 30.44 in1030.8 mb 0.00 in0.0 mm 0.00 in0.0 mm 0.00 in0.0 mm
02:14 AM 22.5°F-5.3°C 17.0°F-8.3°C 79% Calm Calm -- 30.44 in1030.8 mb 0.00 in0.0 mm 0.00 in0.0 mm 0.00 in0.0 mm
02:13 AM 22.6°F-5.2°C 17.1°F-8.3°C 79% Calm Calm -- 30.44 in1030.8 mb 0.00 in0.0 mm 0.00 in0.0 mm 0.00 in0.0 mm
02:12 AM 22.6°F-5.2°C 17.1°F-8.3°C 79% Calm Calm -- 30.44 in1030.8 mb 0.00 in0.0 mm 0.00 in0.0 mm 0.00 in0.0 mm
02:11 AM 22.6°F-5.2°C 17.1°F-8.3°C 79% Calm Calm -- 30.44 in1030.8 mb 0.00 in0.0 mm 0.00 in0.0 mm 0.00 in0.0 mm
02:10 AM 22.6°F-5.2°C 17.1°F-8.3°C 79% Calm Calm -- 30.44 in1030.8 mb 0.00 in0.0 mm 0.00 in0.0 mm 0.00 in0.0 mm
02:09 AM 22.6°F-5.2°C 17.1°F-8.3°C 79% Calm Calm -- 30.44 in1030.8 mb 0.00 in0.0 mm 0.00 in0.0 mm 0.00 in0.0 mm
02:08 AM 22.6°F-5.2°C 17.1°F-8.3°C 79% Calm Calm -- 30.44 in1030.8 mb 0.00 in0.0 mm 0.00 in0.0 mm 0.00 in0.0 mm
02:07 AM 22.6°F-5.2°C 17.1°F-8.3°C 79% Calm Calm -- 30.44 in1030.8 mb 0.00 in0.0 mm 0.00 in0.0 mm 0.00 in0.0 mm
02:06 AM 22.6°F-5.2°C 17.1°F-8.3°C 79% Calm Calm -- 30.44 in1030.8 mb 0.00 in0.0 mm 0.00 in0.0 mm 0.00 in0.0 mm
02:05 AM 22.6°F-5.2°C 17.1°F-8.3°C 79% Calm Calm -- 30.45 in1031.2 mb 0.00 in0.0 mm 0.00 in0.0 mm 0.00 in0.0 mm
02:04 AM 22.6°F-5.2°C 17.1°F-8.3°C 79% Calm Calm -- 30.44 in1030.8 mb 0.00 in0.0 mm 0.00 in0.0 mm 0.00 in0.0 mm
02:03 AM 22.6°F-5.2°C 17.1°F-8.3°C 79% Calm Calm -- 30.44 in1030.8 mb 0.00 in0.0 mm 0.00 in0.0 mm 0.00 in0.0 mm
02:02 AM 22.8°F-5.1°C 17.3°F-8.2°C 79% Calm Calm -- 30.44 in1030.8 mb 0.00 in0.0 mm 0.00 in0.0 mm 0.00 in0.0 mm
02:01 AM 22.8°F-5.1°C 17.3°F-8.2°C 79% Calm Calm -- 30.45 in1031.2 mb 0.00 in0.0 mm 0.00 in0.0 mm 0.00 in0.0 mm
02:00 AM 22.8°F-5.1°C 17.3°F-8.2°C 79% Calm Calm -- 30.45 in1031.2 mb 0.00 in0.0 mm 0.00 in0.0 mm 0.00 in0.0 mm
01:59 AM 22.8°F-5.1°C 17.3°F-8.2°C 79% Calm Calm -- 30.44 in1030.8 mb 0.00 in0.0 mm 0.00 in0.0 mm 0.00 in0.0 mm
01:58 AM 22.8°F-5.1°C 17.3°F-8.2°C 79% Calm Calm -- 30.44 in1030.8 mb 0.00 in0.0 mm 0.00 in0.0 mm 0.00 in0.0 mm
01:57 AM 22.8°F-5.1°C 17.3°F-8.2°C 79% Calm Calm -- 30.44 in1030.8 mb 0.00 in0.0 mm 0.00 in0.0 mm 0.00 in0.0 mm
01:56 AM 22.6°F-5.2°C 17.1°F-8.3°C 79% Calm Calm -- 30.44 in1030.8 mb 0.00 in0.0 mm 0.00 in0.0 mm 0.00 in0.0 mm
01:55 AM 22.6°F-5.2°C 17.1°F-8.3°C 79% Calm Calm -- 30.44 in1030.8 mb 0.00 in0.0 mm 0.00 in0.0 mm 0.00 in0.0 mm
01:54 AM 22.6°F-5.2°C 17.1°F-8.3°C 79% Calm Calm -- 30.44 in1030.8 mb 0.00 in0.0 mm 0.00 in0.0 mm 0.00 in0.0 mm
01:53 AM 22.5°F-5.3°C 17.0°F-8.3°C 79% Calm Calm -- 30.44 in1030.8 mb 0.00 in0.0 mm 0.00 in0.0 mm 0.00 in0.0 mm
01:52 AM 22.5°F-5.3°C 17.0°F-8.3°C 79% Calm Calm -- 30.43 in1030.5 mb 0.00 in0.0 mm 0.00 in0.0 mm 0.00 in0.0 mm
01:51 AM 22.5°F-5.3°C 17.0°F-8.3°C 79% Calm Calm -- 30.44 in1030.8 mb 0.00 in0.0 mm 0.00 in0.0 mm 0.00 in0.0 mm
01:50 AM 22.5°F-5.3°C 17.0°F-8.3°C 79% Calm Calm -- 30.44 in1030.8 mb 0.00 in0.0 mm 0.00 in0.0 mm 0.00 in0.0 mm
01:49 AM 22.6°F-5.2°C 17.1°F-8.3°C 79% Calm Calm -- 30.44 in1030.8 mb 0.00 in0.0 mm 0.00 in0.0 mm 0.00 in0.0 mm
01:48 AM 22.6°F-5.2°C 17.1°F-8.3°C 79% Calm Calm -- 30.43 in1030.5 mb 0.00 in0.0 mm 0.00 in0.0 mm 0.00 in0.0 mm
01:47 AM 22.6°F-5.2°C 17.1°F-8.3°C 79% Calm Calm -- 30.44 in1030.8 mb 0.00 in0.0 mm 0.00 in0.0 mm 0.00 in0.0 mm
01:46 AM 22.6°F-5.2°C 17.1°F-8.3°C 79% Calm Calm -- 30.44 in1030.8 mb 0.00 in0.0 mm 0.00 in0.0 mm 0.00 in0.0 mm
01:45 AM 22.6°F-5.2°C 17.1°F-8.3°C 79% Calm Calm -- 30.44 in1030.8 mb 0.00 in0.0 mm 0.00 in0.0 mm 0.00 in0.0 mm
01:44 AM 22.6°F-5.2°C 17.1°F-8.3°C 79% Calm Calm -- 30.44 in1030.8 mb 0.00 in0.0 mm 0.00 in0.0 mm 0.00 in0.0 mm
01:43 AM 22.6°F-5.2°C 17.1°F-8.3°C 79% Calm Calm -- 30.44 in1030.8 mb 0.00 in0.0 mm 0.00 in0.0 mm 0.00 in0.0 mm
01:42 AM 22.6°F-5.2°C 17.4°F-8.1°C 80% Calm Calm -- 30.43 in1030.5 mb 0.00 in0.0 mm 0.00 in0.0 mm 0.00 in0.0 mm
01:41 AM 22.6°F-5.2°C 17.4°F-8.1°C 80% Calm Calm -- 30.44 in1030.8 mb 0.00 in0.0 mm 0.00 in0.0 mm 0.00 in0.0 mm
01:40 AM 22.6°F-5.2°C 17.4°F-8.1°C 80% Calm Calm -- 30.44 in1030.8 mb 0.00 in0.0 mm 0.00 in0.0 mm 0.00 in0.0 mm
01:39 AM 22.8°F-5.1°C 17.6°F-8.0°C 80% Calm Calm -- 30.44 in1030.8 mb 0.00 in0.0 mm 0.00 in0.0 mm 0.00 in0.0 mm
01:38 AM 22.8°F-5.1°C 17.6°F-8.0°C 80% Calm Calm -- 30.44 in1030.8 mb 0.00 in0.0 mm 0.00 in0.0 mm 0.00 in0.0 mm
01:37 AM 22.8°F-5.1°C 17.3°F-8.2°C 79% Calm Calm -- 30.43 in1030.5 mb 0.00 in0.0 mm 0.00 in0.0 mm 0.00 in0.0 mm
01:36 AM 22.8°F-5.1°C 17.3°F-8.2°C 79% Calm Calm -- 30.43 in1030.5 mb 0.00 in0.0 mm 0.00 in0.0 mm 0.00 in0.0 mm
01:35 AM 22.8°F-5.1°C 17.3°F-8.2°C 79% Calm Calm -- 30.43 in1030.5 mb 0.00 in0.0 mm 0.00 in0.0 mm 0.00 in0.0 mm
01:34 AM 22.6°F-5.2°C 17.1°F-8.3°C 79% Calm Calm -- 30.43 in1030.5 mb 0.00 in0.0 mm 0.00 in0.0 mm 0.00 in0.0 mm
01:33 AM 22.6°F-5.2°C 17.1°F-8.3°C 79% Calm Calm -- 30.43 in1030.5 mb 0.00 in0.0 mm 0.00 in0.0 mm 0.00 in0.0 mm
01:32 AM 22.6°F-5.2°C 17.4°F-8.1°C 80% Calm Calm -- 30.43 in1030.5 mb 0.00 in0.0 mm 0.00 in0.0 mm 0.00 in0.0 mm
01:31 AM 22.5°F-5.3°C 17.3°F-8.2°C 80% Calm Calm -- 30.43 in1030.5 mb 0.00 in0.0 mm 0.00 in0.0 mm 0.00 in0.0 mm
01:30 AM 22.5°F-5.3°C 17.3°F-8.2°C 80% Calm Calm -- 30.43 in1030.5 mb 0.00 in0.0 mm 0.00 in0.0 mm 0.00 in0.0 mm
01:29 AM 22.5°F-5.3°C 17.3°F-8.2°C 80% Calm Calm -- 30.43 in1030.5 mb 0.00 in0.0 mm 0.00 in0.0 mm 0.00 in0.0 mm
01:28 AM 22.5°F-5.3°C 17.3°F-8.2°C 80% Calm Calm -- 30.44 in1030.8 mb 0.00 in0.0 mm 0.00 in0.0 mm 0.00 in0.0 mm
01:27 AM 22.5°F-5.3°C 17.3°F-8.2°C 80% Calm Calm -- 30.44 in1030.8 mb 0.00 in0.0 mm 0.00 in0.0 mm 0.00 in0.0 mm
01:26 AM 22.5°F-5.3°C 17.3°F-8.2°C 80% Calm Calm -- 30.44 in1030.8 mb 0.00 in0.0 mm 0.00 in0.0 mm 0.00 in0.0 mm
01:25 AM 22.5°F-5.3°C 17.0°F-8.3°C 79% Calm Calm -- 30.45 in1031.2 mb 0.00 in0.0 mm 0.00 in0.0 mm 0.00 in0.0 mm
01:24 AM 22.5°F-5.3°C 17.0°F-8.3°C 79% Calm Calm -- 30.44 in1030.8 mb 0.00 in0.0 mm 0.00 in0.0 mm 0.00 in0.0 mm
01:23 AM 22.6°F-5.2°C 17.1°F-8.3°C 79% Calm Calm -- 30.44 in1030.8 mb 0.00 in0.0 mm 0.00 in0.0 mm 0.00 in0.0 mm
01:22 AM 22.6°F-5.2°C 17.1°F-8.3°C 79% Calm Calm -- 30.44 in1030.8 mb 0.00 in0.0 mm 0.00 in0.0 mm 0.00 in0.0 mm
01:21 AM 22.6°F-5.2°C 17.1°F-8.3°C 79% Calm Calm -- 30.44 in1030.8 mb 0.00 in0.0 mm 0.00 in0.0 mm 0.00 in0.0 mm
01:20 AM 22.6°F-5.2°C 17.1°F-8.3°C 79% Calm Calm -- 30.44 in1030.8 mb 0.00 in0.0 mm 0.00 in0.0 mm 0.00 in0.0 mm
01:19 AM 22.6°F-5.2°C 17.1°F-8.3°C 79% Calm Calm -- 30.43 in1030.5 mb 0.00 in0.0 mm 0.00 in0.0 mm 0.00 in0.0 mm
01:18 AM 22.6°F-5.2°C 17.1°F-8.3°C 79% Calm Calm -- 30.44 in1030.8 mb 0.00 in0.0 mm 0.00 in0.0 mm 0.00 in0.0 mm
01:17 AM 22.6°F-5.2°C 17.1°F-8.3°C 79% Calm Calm -- 30.44 in1030.8 mb 0.00 in0.0 mm 0.00 in0.0 mm 0.00 in0.0 mm
01:16 AM 22.6°F-5.2°C 17.1°F-8.3°C 79% Calm Calm -- 30.44 in1030.8 mb 0.00 in0.0 mm 0.00 in0.0 mm 0.00 in0.0 mm
01:15 AM 22.6°F-5.2°C 17.4°F-8.1°C 80% Calm Calm -- 30.44 in1030.8 mb 0.00 in0.0 mm 0.00 in0.0 mm 0.00 in0.0 mm
01:14 AM 22.5°F-5.3°C 17.3°F-8.2°C 80% Calm Calm -- 30.43 in1030.5 mb 0.00 in0.0 mm 0.00 in0.0 mm 0.00 in0.0 mm
01:13 AM 22.5°F-5.3°C 17.3°F-8.2°C 80% Calm Calm -- 30.44 in1030.8 mb 0.00 in0.0 mm 0.00 in0.0 mm 0.00 in0.0 mm
01:12 AM 22.5°F-5.3°C 17.3°F-8.2°C 80% Calm Calm -- 30.43 in1030.5 mb 0.00 in0.0 mm 0.00 in0.0 mm 0.00 in0.0 mm
01:11 AM 22.5°F-5.3°C 17.3°F-8.2°C 80% Calm Calm -- 30.43 in1030.5 mb 0.00 in0.0 mm 0.00 in0.0 mm 0.00 in0.0 mm
01:10 AM 22.5°F-5.3°C 17.3°F-8.2°C 80% Calm Calm -- 30.44 in1030.8 mb 0.00 in0.0 mm 0.00 in0.0 mm 0.00 in0.0 mm
01:09 AM 22.5°F-5.3°C 17.0°F-8.3°C 79% Calm Calm -- 30.43 in1030.5 mb 0.00 in0.0 mm 0.00 in0.0 mm 0.00 in0.0 mm
01:08 AM 22.5°F-5.3°C 17.0°F-8.3°C 79% Calm Calm -- 30.44 in1030.8 mb 0.00 in0.0 mm 0.00 in0.0 mm 0.00 in0.0 mm
01:07 AM 22.6°F-5.2°C 17.1°F-8.3°C 79% Calm Calm -- 30.44 in1030.8 mb 0.00 in0.0 mm 0.00 in0.0 mm 0.00 in0.0 mm
01:06 AM 22.6°F-5.2°C 17.1°F-8.3°C 79% Calm Calm -- 30.44 in1030.8 mb 0.00 in0.0 mm 0.00 in0.0 mm 0.00 in0.0 mm
01:05 AM 22.6°F-5.2°C 17.1°F-8.3°C 79% Calm Calm -- 30.44 in1030.8 mb 0.00 in0.0 mm 0.00 in0.0 mm 0.00 in0.0 mm
01:04 AM 22.6°F-5.2°C 17.1°F-8.3°C 79% Calm Calm -- 30.43 in1030.5 mb 0.00 in0.0 mm 0.00 in0.0 mm 0.00 in0.0 mm
01:03 AM 22.6°F-5.2°C 17.1°F-8.3°C 79% Calm Calm -- 30.44 in1030.8 mb 0.00 in0.0 mm 0.00 in0.0 mm 0.00 in0.0 mm
01:02 AM 22.6°F-5.2°C 17.1°F-8.3°C 79% Calm Calm -- 30.43 in1030.5 mb 0.00 in0.0 mm 0.00 in0.0 mm 0.00 in0.0 mm
01:01 AM 22.5°F-5.3°C 17.0°F-8.3°C 79% Calm Calm -- 30.43 in1030.5 mb 0.00 in0.0 mm 0.00 in0.0 mm 0.00 in0.0 mm
01:00 AM 22.5°F-5.3°C 17.3°F-8.2°C 80% Calm Calm -- 30.44 in1030.8 mb 0.00 in0.0 mm 0.00 in0.0 mm 0.00 in0.0 mm
12:59 AM 22.5°F-5.3°C 17.3°F-8.2°C 80% Calm Calm -- 30.43 in1030.5 mb 0.00 in0.0 mm 0.00 in0.0 mm 0.00 in0.0 mm
12:58 AM 22.3°F-5.4°C 17.1°F-8.3°C 80% Calm Calm -- 30.43 in1030.5 mb 0.00 in0.0 mm 0.00 in0.0 mm 0.00 in0.0 mm
12:57 AM 22.3°F-5.4°C 17.1°F-8.3°C 80% Calm Calm -- 30.44 in1030.8 mb 0.00 in0.0 mm 0.00 in0.0 mm 0.00 in0.0 mm
12:56 AM 22.3°F-5.4°C 17.1°F-8.3°C 80% Calm Calm -- 30.43 in1030.5 mb 0.00 in0.0 mm 0.00 in0.0 mm 0.00 in0.0 mm
12:55 AM 22.3°F-5.4°C 16.8°F-8.4°C 79% Calm Calm -- 30.44 in1030.8 mb 0.00 in0.0 mm 0.00 in0.0 mm 0.00 in0.0 mm
12:54 AM 22.3°F-5.4°C 16.8°F-8.4°C 79% Calm Calm -- 30.43 in1030.5 mb 0.00 in0.0 mm 0.00 in0.0 mm 0.00 in0.0 mm
12:53 AM 22.3°F-5.4°C 16.8°F-8.4°C 79% Calm Calm -- 30.43 in1030.5 mb 0.00 in0.0 mm 0.00 in0.0 mm 0.00 in0.0 mm
12:52 AM 22.3°F-5.4°C 16.8°F-8.4°C 79% Calm Calm -- 30.43 in1030.5 mb 0.00 in0.0 mm 0.00 in0.0 mm 0.00 in0.0 mm
12:51 AM 22.3°F-5.4°C 16.8°F-8.4°C 79% Calm Calm -- 30.43 in1030.5 mb 0.00 in0.0 mm 0.00 in0.0 mm 0.00 in0.0 mm
12:50 AM 22.5°F-5.3°C 17.0°F-8.3°C 79% Calm Calm -- 30.43 in1030.5 mb 0.00 in0.0 mm 0.00 in0.0 mm 0.00 in0.0 mm
12:49 AM 22.5°F-5.3°C 17.0°F-8.3°C 79% Calm Calm -- 30.44 in1030.8 mb 0.00 in0.0 mm 0.00 in0.0 mm 0.00 in0.0 mm
12:48 AM 22.5°F-5.3°C 17.0°F-8.3°C 79% Calm Calm -- 30.44 in1030.8 mb 0.00 in0.0 mm 0.00 in0.0 mm 0.00 in0.0 mm
12:47 AM 22.5°F-5.3°C 17.0°F-8.3°C 79% Calm Calm -- 30.43 in1030.5 mb 0.00 in0.0 mm 0.00 in0.0 mm 0.00 in0.0 mm
12:46 AM 22.5°F-5.3°C 17.0°F-8.3°C 79% Calm Calm -- 30.43 in1030.5 mb 0.00 in0.0 mm 0.00 in0.0 mm 0.00 in0.0 mm
12:45 AM 22.5°F-5.3°C 17.0°F-8.3°C 79% Calm Calm -- 30.44 in1030.8 mb 0.00 in0.0 mm 0.00 in0.0 mm 0.00 in0.0 mm
12:44 AM 22.5°F-5.3°C 17.0°F-8.3°C 79% Calm Calm -- 30.44 in1030.8 mb 0.00 in0.0 mm 0.00 in0.0 mm 0.00 in0.0 mm
12:43 AM 22.5°F-5.3°C 17.0°F-8.3°C 79% Calm Calm -- 30.44 in1030.8 mb 0.00 in0.0 mm 0.00 in0.0 mm 0.00 in0.0 mm
12:42 AM 22.5°F-5.3°C 17.0°F-8.3°C 79% Calm Calm -- 30.44 in1030.8 mb 0.00 in0.0 mm 0.00 in0.0 mm 0.00 in0.0 mm
12:41 AM 22.5°F-5.3°C 16.7°F-8.5°C 78% Calm Calm -- 30.44 in1030.8 mb 0.00 in0.0 mm 0.00 in0.0 mm 0.00 in0.0 mm
12:40 AM 22.5°F-5.3°C 16.7°F-8.5°C 78% Calm Calm -- 30.44 in1030.8 mb 0.00 in0.0 mm 0.00 in0.0 mm 0.00 in0.0 mm
12:39 AM 22.5°F-5.3°C 16.7°F-8.5°C 78% Calm Calm -- 30.44 in1030.8 mb 0.00 in0.0 mm 0.00 in0.0 mm 0.00 in0.0 mm
12:38 AM 22.6°F-5.2°C 16.8°F-8.4°C 78% Calm Calm -- 30.44 in1030.8 mb 0.00 in0.0 mm 0.00 in0.0 mm 0.00 in0.0 mm
12:37 AM 22.6°F-5.2°C 16.8°F-8.4°C 78% Calm Calm -- 30.44 in1030.8 mb 0.00 in0.0 mm 0.00 in0.0 mm 0.00 in0.0 mm
12:36 AM 22.6°F-5.2°C 16.8°F-8.4°C 78% Calm Calm -- 30.43 in1030.5 mb 0.00 in0.0 mm 0.00 in0.0 mm 0.00 in0.0 mm
12:35 AM 22.6°F-5.2°C 16.8°F-8.4°C 78% Calm Calm -- 30.43 in1030.5 mb 0.00 in0.0 mm 0.00 in0.0 mm 0.00 in0.0 mm
12:34 AM 22.6°F-5.2°C 16.8°F-8.4°C 78% Calm Calm -- 30.44 in1030.8 mb 0.00 in0.0 mm 0.00 in0.0 mm 0.00 in0.0 mm
12:33 AM 22.8°F-5.1°C 17.0°F-8.3°C 78% Calm Calm -- 30.43 in1030.5 mb 0.00 in0.0 mm 0.00 in0.0 mm 0.00 in0.0 mm
12:32 AM 22.8°F-5.1°C 17.0°F-8.3°C 78% Calm Calm -- 30.44 in1030.8 mb 0.00 in0.0 mm 0.00 in0.0 mm 0.00 in0.0 mm
12:31 AM 22.8°F-5.1°C 16.7°F-8.5°C 77% Calm Calm -- 30.44 in1030.8 mb 0.00 in0.0 mm 0.00 in0.0 mm 0.00 in0.0 mm
12:30 AM 22.8°F-5.1°C 16.7°F-8.5°C 77% Calm Calm -- 30.43 in1030.5 mb 0.00 in0.0 mm 0.00 in0.0 mm 0.00 in0.0 mm
12:29 AM 22.8°F-5.1°C 16.7°F-8.5°C 77% Calm Calm -- 30.43 in1030.5 mb 0.00 in0.0 mm 0.00 in0.0 mm 0.00 in0.0 mm
12:28 AM 22.8°F-5.1°C 16.7°F-8.5°C 77% Calm Calm -- 30.43 in1030.5 mb 0.00 in0.0 mm 0.00 in0.0 mm 0.00 in0.0 mm
12:27 AM 22.8°F-5.1°C 16.7°F-8.5°C 77% Calm Calm -- 30.44 in1030.8 mb 0.00 in0.0 mm 0.00 in0.0 mm 0.00 in0.0 mm
12:26 AM 22.8°F-5.1°C 16.7°F-8.5°C 77% Calm Calm -- 30.43 in1030.5 mb 0.00 in0.0 mm 0.00 in0.0 mm 0.00 in0.0 mm
12:25 AM 22.8°F-5.1°C 16.7°F-8.5°C 77% Calm Calm -- 30.43 in1030.5 mb 0.00 in0.0 mm 0.00 in0.0 mm 0.00 in0.0 mm
12:24 AM 22.8°F-5.1°C 16.4°F-8.7°C 76% Calm Calm -- 30.43 in1030.5 mb 0.00 in0.0 mm 0.00 in0.0 mm 0.00 in0.0 mm
12:23 AM 22.8°F-5.1°C 16.4°F-8.7°C 76% Calm Calm -- 30.44 in1030.8 mb 0.00 in0.0 mm 0.00 in0.0 mm 0.00 in0.0 mm
12:22 AM 23.0°F-5.0°C 16.6°F-8.6°C 76% Calm Calm -- 30.43 in1030.5 mb 0.00 in0.0 mm 0.00 in0.0 mm 0.00 in0.0 mm
12:21 AM 23.0°F-5.0°C 16.3°F-8.7°C 75% Calm Calm -- 30.44 in1030.8 mb 0.00 in0.0 mm 0.00 in0.0 mm 0.00 in0.0 mm
12:20 AM 23.0°F-5.0°C 16.3°F-8.7°C 75% Calm Calm -- 30.44 in1030.8 mb 0.00 in0.0 mm 0.00 in0.0 mm 0.00 in0.0 mm
12:19 AM 23.0°F-5.0°C 16.6°F-8.6°C 76% Calm Calm -- 30.44 in1030.8 mb 0.00 in0.0 mm 0.00 in0.0 mm 0.00 in0.0 mm
12:18 AM 23.0°F-5.0°C 16.3°F-8.7°C 75% Calm Calm -- 30.44 in1030.8 mb 0.00 in0.0 mm 0.00 in0.0 mm 0.00 in0.0 mm
12:17 AM 23.0°F-5.0°C 16.3°F-8.7°C 75% Calm Calm -- 30.45 in1031.2 mb 0.00 in0.0 mm 0.00 in0.0 mm 0.00 in0.0 mm
12:16 AM 23.0°F-5.0°C 16.3°F-8.7°C 75% Calm Calm -- 30.45 in1031.2 mb 0.00 in0.0 mm 0.00 in0.0 mm 0.00 in0.0 mm
12:15 AM 23.2°F-4.9°C 16.5°F-8.6°C 75% Calm Calm -- 30.44 in1030.8 mb 0.00 in0.0 mm 0.00 in0.0 mm 0.00 in0.0 mm
12:14 AM 23.2°F-4.9°C 16.5°F-8.6°C 75% Calm Calm -- 30.44 in1030.8 mb 0.00 in0.0 mm 0.00 in0.0 mm 0.00 in0.0 mm
12:13 AM 23.2°F-4.9°C 16.5°F-8.6°C 75% Calm Calm -- 30.44 in1030.8 mb 0.00 in0.0 mm 0.00 in0.0 mm 0.00 in0.0 mm
12:12 AM 23.2°F-4.9°C 16.5°F-8.6°C 75% Calm Calm -- 30.44 in1030.8 mb 0.00 in0.0 mm 0.00 in0.0 mm 0.00 in0.0 mm
12:11 AM 23.4°F-4.8°C 16.7°F-8.5°C 75% Calm Calm -- 30.45 in1031.2 mb 0.00 in0.0 mm 0.00 in0.0 mm 0.00 in0.0 mm
12:10 AM 23.4°F-4.8°C 16.7°F-8.5°C 75% Calm Calm -- 30.45 in1031.2 mb 0.00 in0.0 mm 0.00 in0.0 mm 0.00 in0.0 mm
12:09 AM 23.4°F-4.8°C 16.7°F-8.5°C 75% Calm Calm -- 30.45 in1031.2 mb 0.00 in0.0 mm 0.00 in0.0 mm 0.00 in0.0 mm
12:08 AM 23.4°F-4.8°C 16.7°F-8.5°C 75% Calm Calm -- 30.45 in1031.2 mb 0.00 in0.0 mm 0.00 in0.0 mm 0.00 in0.0 mm
12:07 AM 23.4°F-4.8°C 16.7°F-8.5°C 75% Calm Calm -- 30.45 in1031.2 mb 0.00 in0.0 mm 0.00 in0.0 mm 0.00 in0.0 mm
12:06 AM 23.4°F-4.8°C 16.7°F-8.5°C 75% 1.1 mph N1.8 kmh N 1.1 mph1.8 kmh 30.45 in1031.2 mb 0.00 in0.0 mm 0.00 in0.0 mm 0.00 in0.0 mm
12:05 AM 23.4°F-4.8°C 16.7°F-8.5°C 75% Calm Calm -- 30.44 in1030.8 mb 0.00 in0.0 mm 0.00 in0.0 mm 0.00 in0.0 mm
12:04 AM 23.4°F-4.8°C 16.4°F-8.7°C 74% Calm Calm -- 30.45 in1031.2 mb 0.00 in0.0 mm 0.00 in0.0 mm 0.00 in0.0 mm
12:03 AM 23.5°F-4.7°C 16.5°F-8.6°C 74% Calm Calm -- 30.45 in1031.2 mb 0.00 in0.0 mm 0.00 in0.0 mm 0.00 in0.0 mm
12:02 AM 23.5°F-4.7°C 16.5°F-8.6°C 74% Calm Calm -- 30.45 in1031.2 mb 0.00 in0.0 mm 0.00 in0.0 mm 0.00 in0.0 mm
12:01 AM 23.5°F-4.7°C 16.8°F-8.4°C 75% Calm Calm -- 30.45 in1031.2 mb 0.00 in0.0 mm 0.00 in0.0 mm 0.00 in0.0 mm
12:00 AM 23.5°F-4.7°C 16.8°F-8.4°C 75% Calm Calm -- 30.45 in1031.2 mb 0.00 in0.0 mm 0.00 in0.0 mm 0.00 in0.0 mm